Flight Track Log - Related Links

Times and Time Zones

All times are in EDT time to prevent confusion due to time zone crossing. See the BAW243 flight status page for this flight to view local times or setup timezone preferences in your user account.

Time Position Orientation Groundspeed Altitude Reporting Facility
EDT Latitude Longitude Course Direction KTS MPH feet Rate Location/Type
Sat 09:35:02 AM 51.4770 -0.5110 270° West 155 178 1,000  Level FlightAware ADS-B
Sat 09:35:32 AM 51.4750 -0.5480 265° West 174 200 1,600 1,756 Climbing FlightAware ADS-B
Sat 09:35:43 AM 51.4716 -0.5663 253° West 172 198 2,200 2,857 Climbing FlightAware ADS-B
Sat 09:35:53 AM 51.4699 -0.5787 258° West 171 197 2,600 2,211 Climbing FlightAware ADS-B
Sat 09:36:02 AM 51.4683 -0.5900 257° West 173 199 2,900 1,875 Climbing FlightAware ADS-B
Sat 09:36:09 AM 51.4669 -0.5987 255° West 174 200 3,100 1,600 Climbing FlightAware ADS-B
Sat 09:36:17 AM 51.4652 -0.6100 256° West 176 203 3,300 1,636 Climbing FlightAware ADS-B
Sat 09:36:31 AM 51.4635 -0.6268 261° West 176 203 3,700 1,579 Climbing FlightAware ADS-B
Sat 09:36:36 AM 51.4632 -0.6334 266° West 177 204 3,800 1,385 Climbing FlightAware ADS-B
Sat 09:36:44 AM 51.4631 -0.6440 269° West 182 209 4,000 1,500 Climbing FlightAware ADS-B
Sat 09:36:56 AM 51.4626 -0.6605 267° West 188 216 4,300 1,412 Climbing FlightAware ADS-B
Sat 09:37:01 AM 51.4621 -0.6674 263° West 191 220 4,400 1,500 Climbing FlightAware ADS-B
Sat 09:37:04 AM 51.4616 -0.6731 262° West 195 224 4,500 1,000 Climbing FlightAware ADS-B
Sat 09:37:13 AM 51.4595 -0.6847 254° West 205 236 4,600 857 Climbing FlightAware ADS-B
Sat 09:37:18 AM 51.4585 -0.6921 258° West 210 242 4,700 1,333 Climbing FlightAware ADS-B
Sat 09:37:22 AM 51.4579 -0.6984 261° West 216 249 4,800 1,500 Climbing FlightAware ADS-B
Sat 09:37:26 AM 51.4580 -0.7048 271° West 218 251 4,900 857 Climbing FlightAware ADS-B
Sat 09:37:29 AM 51.4585 -0.7097 279° West 223 257 4,900 1,333 Level FlightAware ADS-B
Sat 09:37:35 AM 51.4600 -0.7195 284° West 229 264 5,100 1,429 Climbing FlightAware ADS-B
Sat 09:37:50 AM 51.4651 -0.7444 288° West 245 282 5,400 1,500 Climbing FlightAware ADS-B
Sat 09:37:59 AM 51.4682 -0.7603 287° West 250 288 5,700 1,826 Climbing FlightAware ADS-B
Sat 09:38:13 AM 51.4729 -0.7857 287° West 261 300 6,100 2,276 Climbing FlightAware ADS-B
Sat 09:38:28 AM 51.4780 -0.8138 286° West 265 305 6,800 2,609 Climbing FlightAware ADS-B
Sat 09:38:36 AM 51.4808 -0.8290 286° West 268 308 7,100 2,348 Climbing FlightAware ADS-B
Sat 09:38:51 AM 51.4858 -0.8578 286° West 270 311 7,700 2,357 Climbing FlightAware ADS-B
Sat 09:39:04 AM 51.4900 -0.8832 285° West 273 314 8,200 2,483 Climbing FlightAware ADS-B
Sat 09:39:20 AM 51.4952 -0.9146 285° West 275 316 8,900 2,710 Climbing FlightAware ADS-B
Sat 09:39:35 AM 51.5005 -0.9461 285° West 276 318 9,600 -400 Climbing FlightAware ADS-B
Sat 09:39:50 AM 51.5056 -0.9759 285° West 316 364 8,700 2,250 Descending FlightAware UK
Sat 09:39:59 AM 51.5082 -0.9917 285° West 281 323 10,500 1,400 Climbing FlightAware ADS-B
Sat 09:40:20 AM 51.5149 -1.0383 285° West 334 384 9,400 1,400 Descending FlightAware UK
Sat 09:40:29 AM 51.5174 -1.0557 285° West 304 350 11,200 6,000 Climbing FlightAware ADS-B
Sat 09:40:42 AM 51.5204 -1.0848 279° West 310 357 11,600 2,143 Climbing FlightAware ADS-B
Sat 09:41:11 AM 51.5249 -1.1517 276° West 315 362 12,700 2,357 Climbing FlightAware ADS-B
Sat 09:41:38 AM 51.5291 -1.2147 276° West 319 367 13,800 267 Climbing FlightAware ADS-B
Sat 09:41:56 AM 51.5319 -1.2589 276° West 360 414 12,900 2,000 Descending FlightAware UK
Sat 09:42:08 AM 51.5335 -1.2859 276° West 326 375 14,800 1,200 Climbing FlightAware ADS-B
Sat 09:42:26 AM 51.5361 -1.3317 276° West 368 423 13,500 400 Descending FlightAware UK
Sat 09:42:38 AM 51.5378 -1.3614 276° West 330 380 15,000 2,318 Climbing FlightAware ADS-B
Sat 09:43:10 AM 51.5424 -1.4374 276° West 335 386 15,200 -1,000 Climbing FlightAware ADS-B
Sat 09:43:26 AM 51.5447 -1.4784 276° West 372 428 14,200 2,129 Descending FlightAware UK
Sat 09:43:41 AM 51.5468 -1.5141 276° West 336 387 16,300 2,000 Climbing FlightAware ADS-B
Sat 09:43:56 AM 51.5490 -1.5530 276° West 380 437 15,200 1,875 Descending FlightAware UK
Sat 09:44:13 AM 51.5516 -1.5944 276° West 342 394 17,300 3,830 Climbing FlightAware ADS-B
Sat 09:44:43 AM 51.5561 -1.6711 275° West 350 403 18,200 -245 Climbing FlightAware ADS-B
Sat 09:45:02 AM 51.5591 -1.7218 275° West 382 440 17,100 1,400 Descending FlightAware UK
Sat 09:45:13 AM 51.5612 -1.7497 275° West 358 412 18,900 1,400 Climbing FlightAware ADS-B
Sat 09:45:32 AM 51.5646 -1.8013 275° West 390 449 17,800 1,688 Descending FlightAware UK
Sat 09:45:45 AM 51.5673 -1.8353 275° West 367 422 19,800 1,600 Climbing FlightAware ADS-B
Sat 09:46:02 AM 51.5705 -1.8829 275° West 392 451 18,600 1,355 Descending FlightAware UK
Sat 09:46:16 AM 51.5732 -1.9205 275° West 376 433 20,500 1,400 Climbing FlightAware ADS-B
Sat 09:46:32 AM 51.5763 -1.9661 275° West 398 458 19,300 1,400 Descending FlightAware UK
Sat 09:46:46 AM 51.5787 -2.0046 275° West 383 441 21,200 1,400 Climbing FlightAware ADS-B
Sat 09:47:02 AM 51.5815 -2.0511 275° West 406 467 20,000 1,313 Descending FlightAware UK
Sat 09:47:18 AM 51.5839 -2.0959 275° West 389 448 21,900 1,543 Climbing FlightAware ADS-B
Sat 09:47:37 AM 51.5871 -2.1535 275° West 412 474 20,900 1,548 Descending FlightAware UK
Sat 09:47:49 AM 51.5889 -2.1851 275° West 391 450 22,700 1,297 Climbing FlightAware ADS-B
Sat 09:48:14 AM 51.5931 -2.2583 275° West 416 479 21,700 1,313 Descending FlightAware UK
Sat 09:48:21 AM 51.5941 -2.2812 275° West 395 455 23,400 1,250 Climbing FlightAware ADS-B
Sat 09:48:38 AM 51.5951 -2.3294 275° West 418 481 22,200 1,355 Descending FlightAware UK
Sat 09:48:52 AM 51.5951 -2.3705 275° West 404 465 24,100 1,241 Climbing FlightAware ADS-B
Sat 09:49:07 AM 51.5951 -2.4189 275° West 420 483 22,800 1,091 Descending FlightAware UK
Sat 09:49:25 AM 51.5949 -2.4703 275° West 410 472 24,700 1,167 Climbing FlightAware ADS-B
Sat 09:49:43 AM 51.5947 -2.5285 275° West 428 493 23,500 1,125 Descending FlightAware UK
Sat 09:49:57 AM 51.5950 -2.5620 275° West 414 476 25,300 1,400 Climbing FlightAware ADS-B
Sat 09:50:13 AM 51.5945 -2.6206 275° West 432 497 24,200 -1,412 Descending FlightAware UK
Sat 09:50:31 AM 51.5945 -2.6757 270° West 436 502 24,500 833 Climbing FlightAware UK
Sat 09:50:49 AM 51.5943 -2.7322 270° West 442 509 24,700 4,154 Climbing FlightAware UK
Sat 09:50:57 AM 51.5940 -2.7490 270° West 426 490 26,300 750 Climbing FlightAware ADS-B
Sat 09:51:13 AM 51.5944 -2.8087 270° West 448 516 25,000 750 Descending FlightAware UK
Sat 09:51:37 AM 51.5950 -2.8800 270° West 440 506 26,800 571 Climbing FlightAware ADS-B
Sat 09:51:55 AM 51.5950 -2.9452 270° West 464 534 25,400 -2,167 Descending FlightAware UK
Sat 09:52:13 AM 51.5953 -3.0052 271° West 468 539 25,500 3,778 Climbing FlightAware UK
Sat 09:52:22 AM 51.5950 -3.0200 271° West 456 525 27,100 500 Climbing FlightAware ADS-B
Sat 09:52:49 AM 51.5960 -3.1277 271° West 480 552 25,800 600 Descending FlightAware UK
Sat 09:53:02 AM 51.5960 -3.1610 271° West 468 539 27,500 667 Climbing FlightAware ADS-B
Sat 09:53:25 AM 51.5968 -3.2533 271° West 490 564 26,200 600 Descending FlightAware UK
Sat 09:53:42 AM 51.5970 -3.3050 271° West 478 550 27,900 857 Climbing FlightAware ADS-B
Sat 09:54:07 AM 51.5980 -3.4019 271° West 496 571 26,800 933 Descending FlightAware UK
Sat 09:54:27 AM 51.5990 -3.4660 271° West 484 557 28,600 714 Climbing FlightAware ADS-B
Sat 09:54:49 AM 51.5996 -3.5529 271° West 498 573 27,300 900 Descending FlightAware UK
Sat 09:55:07 AM 51.6000 -3.6140 271° West 489 563 29,200 1,286 Climbing FlightAware ADS-B
Sat 09:55:31 AM 51.6004 -3.7055 271° West 496 571 28,200 1,333 Descending FlightAware UK
Sat 09:55:52 AM 51.6010 -3.7730 271° West 488 562 30,200 1,286 Climbing FlightAware ADS-B
Sat 09:56:13 AM 51.6016 -3.8576 271° West 494 568 29,100 -1,231 Descending FlightAware UK
Sat 09:56:31 AM 51.6019 -3.9226 271° West 490 564 29,400 5,684 Climbing FlightAware UK
Sat 09:56:32 AM 51.6020 -3.9180 271° West 487 560 30,900 1,000 Climbing FlightAware ADS-B
Sat 09:56:55 AM 51.6027 -4.0094 271° West 490 564 29,800 1,050 Descending FlightAware UK
Sat 09:57:12 AM 51.6030 -4.0660 271° West 488 562 31,600 1,024 Climbing FlightAware ADS-B
Sat 09:57:36 AM 51.6044 -4.1607 271° West 490 564 30,500 933 Descending FlightAware UK
Sat 09:57:57 AM 51.6050 -4.2260 271° West 489 563 32,300 1,000 Climbing FlightAware ADS-B
Sat 09:58:12 AM 51.6057 -4.2914 271° West 488 562 31,100 -1,636 Descending FlightAware UK
Sat 09:58:30 AM 51.6062 -4.3568 271° West 490 564 31,400 4,800 Climbing FlightAware UK
Sat 09:58:37 AM 51.6060 -4.3710 271° West 489 563 33,100 1,000 Climbing FlightAware ADS-B
Sat 09:58:54 AM 51.6046 -4.4442 271° West 488 562 31,800 750 Descending FlightAware UK
Sat 09:59:17 AM 51.6030 -4.5200 271° West 490 564 33,600 857 Climbing FlightAware ADS-B
Sat 09:59:36 AM 51.6019 -4.5969 271° West 486 559 32,400 -1,784 Descending FlightAware UK
Sat 09:59:54 AM 51.6008 -4.6622 268° West 488 562 32,500 4,571 Climbing FlightAware UK
Sat 09:59:57 AM 51.6010 -4.6620 268° West 490 564 34,000  Climbing FlightAware ADS-B
Sat 10:00:12 AM 51.5997 -4.7275 268° West 486 559 32,500 -2,727 Descending FlightAware UK
Sat 10:00:30 AM 51.5988 -4.7928 269° West 484 557 32,500 3,000 Level FlightAware UK
Sat 10:00:42 AM 51.5980 -4.8250 269° West 489 563 34,000  Climbing FlightAware ADS-B
Sat 10:01:00 AM 51.5973 -4.9009 269° West 486 559 32,500 -2,500 Descending FlightAware UK
Sat 10:01:18 AM 51.5963 -4.9660 269° West 484 557 32,500 4,091 Level FlightAware UK
Sat 10:01:22 AM 51.5960 -4.9660 269° West 487 560 34,000  Climbing FlightAware ADS-B
Sat 10:01:42 AM 51.5950 -5.0527 269° West 482 555 32,500 -2,368 Descending FlightAware UK
Sat 10:02:00 AM 51.5940 -5.1177 269° West 482 555 32,500 3,600 Level FlightAware UK
Sat 10:02:07 AM 51.5940 -5.1320 269° West 487 560 34,000  Climbing FlightAware ADS-B
Sat 10:02:24 AM 51.5925 -5.2043 269° West 482 555 32,500 -2,571 Descending FlightAware UK
Sat 10:02:42 AM 51.5914 -5.2692 268° West 484 557 32,500 3,913 Level FlightAware UK
Sat 10:02:47 AM 51.5910 -5.2770 268° West 487 560 34,000  Climbing FlightAware ADS-B
Sat 10:03:06 AM 51.5899 -5.3559 268° West 482 555 32,500 -2,432 Descending FlightAware UK
Sat 10:03:24 AM 51.5887 -5.4210 268° West 484 557 32,500 3,462 Level FlightAware UK
Sat 10:03:32 AM 51.5880 -5.4360 268° West 488 562 34,000  Climbing FlightAware ADS-B
Sat 10:03:48 AM 51.5870 -5.5079 268° West 484 557 32,500 -2,647 Descending FlightAware UK
Sat 10:04:06 AM 51.5855 -5.5730 268° West 484 557 32,500 3,750 Level FlightAware UK
Sat 10:04:12 AM 51.5850 -5.5810 268° West 488 562 34,000  Climbing FlightAware ADS-B
Sat 10:04:30 AM 51.5834 -5.6599 268° West 484 557 32,500 -2,500 Descending FlightAware UK
Sat 10:04:48 AM 51.5819 -5.7250 268° West 484 557 32,500 4,091 Level FlightAware UK
Sat 10:04:52 AM 51.5820 -5.7290 268° West 488 562 34,000  Climbing FlightAware ADS-B
Sat 10:05:12 AM 51.5798 -5.8118 268° West 482 555 32,500 -2,368 Descending FlightAware UK
Sat 10:05:30 AM 51.5784 -5.8769 268° West 484 557 32,500 3,600 Level FlightAware UK
Sat 10:05:37 AM 51.5780 -5.8960 268° West 488 562 34,000  Climbing FlightAware ADS-B
Sat 10:05:54 AM 51.5764 -5.9638 268° West 484 557 32,500 -2,571 Descending FlightAware UK
Sat 10:06:12 AM 51.5749 -6.0283 268° West 484 557 32,500 3,913 Level FlightAware UK
Sat 10:06:17 AM 51.5740 -6.0400 268° West 488 562 34,000  Climbing FlightAware ADS-B
Sat 10:06:36 AM 51.5726 -6.1151 268° West 484 557 32,500 -2,432 Descending FlightAware UK
Sat 10:06:54 AM 51.5709 -6.1802 268° West 484 557 32,500 4,286 Level FlightAware UK
Sat 10:06:57 AM 51.5710 -6.1850 268° West 488 562 34,000  Climbing FlightAware ADS-B
Sat 10:07:12 AM 51.5691 -6.2453 268° West 484 557 32,500 -2,727 Descending FlightAware UK
Sat 10:07:30 AM 51.5672 -6.3104 267° West 484 557 32,500 3,000 Level FlightAware UK
Sat 10:07:42 AM 51.5660 -6.3450 267° West 488 562 34,000  Climbing FlightAware ADS-B
Sat 10:08:00 AM 51.5642 -6.4190 267° West 484 557 32,500 -2,500 Descending FlightAware UK
Sat 10:08:18 AM 51.5624 -6.4842 267° West 486 559 32,500 4,091 Level FlightAware UK
Sat 10:08:22 AM 51.5620 -6.4890 267° West 488 562 34,000  Climbing FlightAware ADS-B
Sat 10:08:42 AM 51.5601 -6.5711 267° West 486 559 32,500 -2,368 Descending FlightAware UK
Sat 10:09:00 AM 51.5579 -6.6363 267° West 484 557 32,500 3,600 Level FlightAware UK
Sat 10:09:07 AM 51.5570 -6.6520 267° West 486 559 34,000  Climbing FlightAware ADS-B
Sat 10:09:24 AM 51.5551 -6.7228 267° West 482 555 32,500 -2,571 Descending FlightAware UK
Sat 10:09:42 AM 51.5530 -6.7876 267° West 482 555 32,500 3,913 Level FlightAware UK
Sat 10:09:47 AM 51.5530 -6.7990 267° West 486 559 34,000  Climbing FlightAware ADS-B
Sat 10:10:06 AM 51.5502 -6.8739 267° West 482 555 32,500 -2,432 Descending FlightAware UK
Sat 10:10:24 AM 51.5481 -6.9386 267° West 482 555 32,500 4,286 Level FlightAware UK
Sat 10:10:27 AM 51.5480 -6.9400 267° West 486 559 34,000  Climbing FlightAware ADS-B
Sat 10:10:42 AM 51.5461 -7.0034 267° West 482 555 32,500 -2,727 Descending FlightAware UK
Sat 10:11:00 AM 51.5440 -7.0684 267° West 482 555 32,500 3,000 Level FlightAware UK
Sat 10:11:12 AM 51.5430 -7.0950 267° West 487 560 34,000  Climbing FlightAware ADS-B
Sat 10:11:30 AM 51.5401 -7.1758 267° West 482 555 32,500  Descending FlightAware UK
Sat 10:11:47 AM 51.5380 -7.2290 266° West 488 562 34,000  Climbing FlightAware ADS-B
Sat 10:11:48 AM 51.5376 -7.2409 266° West 484 557 32,500 -4,737 Descending FlightAware UK
Sat 10:12:06 AM 51.5353 -7.3060 266° West 484 557 32,500  Level FlightAware UK
Sat 10:12:24 AM 51.5330 -7.3711 267° West 484 557 32,500 2,903 Level FlightAware UK
Sat 10:12:37 AM 51.5320 -7.3990 267° West 489 563 34,000  Climbing FlightAware ADS-B
Sat 10:12:54 AM 51.5293 -7.4798 267° West 486 559 32,500 -2,571 Descending FlightAware UK
Sat 10:13:12 AM 51.5272 -7.5451 267° West 484 557 32,500 5,000 Level FlightAware UK
Sat 10:13:12 AM 51.5280 -7.5180 267° West 489 563 34,000  Climbing FlightAware ADS-B
Sat 10:13:30 AM 51.5248 -7.6103 267° West 484 557 32,500 -2,500 Descending FlightAware UK
Sat 10:13:48 AM 51.5220 -7.6755 266° West 484 557 32,500 3,333 Level FlightAware UK
Sat 10:13:57 AM 51.5210 -7.6770 266° West 489 563 34,000  Climbing FlightAware ADS-B
Sat 10:14:12 AM 51.5182 -7.7623 266° West 484 557 32,500 -2,727 Descending FlightAware UK
Sat 10:14:30 AM 51.5154 -7.8273 266° West 484 557 32,500 3,000 Level FlightAware UK
Sat 10:14:42 AM 51.5140 -7.8580 266° West 488 562 34,000  Climbing FlightAware ADS-B
Sat 10:15:00 AM 51.5110 -7.9356 266° West 482 555 32,500 -2,500 Descending FlightAware UK
Sat 10:15:18 AM 51.5082 -8.0005 266° West 484 557 32,500  Level FlightAware UK
Sat 10:15:36 AM 51.5057 -8.0656 267° West 484 557 32,500 2,647 Level FlightAware UK
Sat 10:15:52 AM 51.5040 -8.1110 267° West 489 563 34,000  Climbing FlightAware ADS-B
Sat 10:16:12 AM 51.5002 -8.1954 267° West 482 555 32,500 -2,368 Descending FlightAware UK
Sat 10:16:30 AM 51.4973 -8.2604 266° West 484 557 32,500 2,571 Level FlightAware UK
Sat 10:16:47 AM 51.4950 -8.3130 266° West 488 562 34,000  Climbing FlightAware ADS-B
Sat 10:16:48 AM 51.4944 -8.3246 266° West 482 555 32,500 -4,737 Descending FlightAware UK
Sat 10:17:06 AM 51.4913 -8.3895 266° West 484 557 32,500  Level FlightAware UK
Sat 10:17:24 AM 51.4881 -8.4545 266° West 484 557 32,500  Level FlightAware UK
Sat 10:17:42 AM 51.4850 -8.5194 266° West 486 559 32,500  Level FlightAware UK
Sat 10:18:00 AM 51.4821 -8.5843 266° West 486 559 32,500 2,000 Level FlightAware UK
Sat 10:18:27 AM 51.4780 -8.6770 266° West 487 560 34,000 1,343 Climbing FlightAware ADS-B
Sat 10:19:07 AM 51.4710 -8.8210 266° West 486 559 34,000 -1,579 Level FlightAware ADS-B
Sat 10:19:24 AM 51.4675 -8.8862 266° West 486 559 32,500  Descending FlightAware UK
Sat 10:19:52 AM 51.4630 -8.9750 266° West 485 558 34,000 1,324 Climbing FlightAware ADS-B
Sat 10:20:32 AM 51.4560 -9.1220 266° West 485 558 34,000  Level FlightAware ADS-B
Sat 10:21:12 AM 51.4480 -9.2610 265° West 485 558 34,000  Level FlightAware ADS-B
Sat 10:23:00 AM 51.4948 -9.6109 282° West  Level Estimated
Sat 10:23:07 AM 51.4260 -9.6650 282° West 483 556 34,000  Level FlightAware ADS-B
Sat 10:25:00 AM 51.4738 -10.0313 282° West  Level Estimated
Sat 10:25:52 AM 51.3910 -10.2580 282° West 482 555 34,000  Level FlightAware ADS-B
Sat 10:26:00 AM 51.4987 -10.2262 282° West  Level Estimated
Sat 10:26:32 AM 51.3830 -10.3890 264° West 482 555 34,000  Level FlightAware ADS-B
Sat 10:27:22 AM 51.3720 -10.5560 264° West 482 555 34,000  Level FlightAware ADS-B
Sat 10:28:02 AM 51.3620 -10.7150 264° West 481 554 34,000  Level FlightAware ADS-B
Sat 10:28:47 AM 51.3510 -10.8810 264° West 481 554 34,000  Level FlightAware ADS-B
Sat 10:29:17 AM 51.3440 -10.9760 263° West 481 554 34,000  Level FlightAware ADS-B
Sat 10:30:02 AM 51.3330 -11.1210 263° West 481 554 34,000  Level FlightAware ADS-B
Sat 10:30:42 AM 51.3240 -11.2410 263° West 481 554 34,000  Level FlightAware ADS-B
Sat 10:31:32 AM 51.3130 -11.3910 263° West 481 554 34,000  Level FlightAware ADS-B
Sat 10:32:12 AM 51.3030 -11.5110 262° West 481 554 34,000  Level FlightAware ADS-B
Sat 10:32:52 AM 51.2940 -11.6310 263° West 481 554 34,000  Level FlightAware ADS-B
Sat 10:33:32 AM 51.2850 -11.7510 263° West 481 554 34,000  Level FlightAware ADS-B
Sat 10:34:22 AM 51.2730 -11.9010 263° West 481 554 34,000  Level FlightAware ADS-B
Sat 10:35:02 AM 51.2640 -12.0210 263° West 481 554 34,000  Level FlightAware ADS-B
Sat 10:35:42 AM 51.2550 -12.1410 263° West 481 554 34,000  Level FlightAware ADS-B
Sat 10:36:22 AM 51.2460 -12.2610 263° West 481 554 34,000  Level FlightAware ADS-B
Sat 10:37:02 AM 51.2360 -12.3810 262° West 481 554 34,000  Level FlightAware ADS-B
Sat 10:37:52 AM 51.2250 -12.5310 263° West 481 554 34,000  Level FlightAware ADS-B
Sat 10:38:32 AM 51.2160 -12.6510 263° West 481 554 34,000  Level FlightAware ADS-B
Sat 10:39:12 AM 51.2060 -12.7710 262° West 481 554 34,000  Level FlightAware ADS-B
Sat 10:41:00 AM 51.2431 -13.1220 280° West  Level Estimated
Sat 10:42:00 AM 51.2632 -13.3173 279° West  Level Estimated
Sat 10:43:00 AM 51.2831 -13.5127 279° West  Level Estimated
Sat 10:44:00 AM 51.3026 -13.7083 279° West  Level Estimated
Sat 10:45:00 AM 51.3217 -13.9040 279° West  Level Estimated
Sat 10:46:00 AM 51.3406 -14.0999 279° West  Level Estimated
Sat 10:47:00 AM 51.3591 -14.2960 279° West  Level Estimated
Sat 10:48:00 AM 51.3773 -14.4922 279° West  Level Estimated
Sat 10:49:00 AM 51.3951 -14.6886 278° West  Level Estimated
Sat 10:50:00 AM 51.4127 -14.8851 278° West  Level Estimated
Sat 10:51:00 AM 51.4299 -15.0818 278° West  Level Estimated
Sat 10:52:00 AM 51.4468 -15.2787 278° West  Level Estimated
Sat 10:53:00 AM 51.4633 -15.4756 278° West  Level Estimated
Sat 10:54:00 AM 51.4795 -15.6728 278° West  Level Estimated
Sat 10:55:00 AM 51.4954 -15.8700 277° West  Level Estimated
Sat 10:56:00 AM 51.5110 -16.0674 277° West  Level Estimated
Sat 10:57:00 AM 51.5262 -16.2649 277° West  Level Estimated
Sat 10:58:00 AM 51.5411 -16.4626 277° West  Level Estimated
Sat 10:59:00 AM 51.5556 -16.6604 277° West  Level Estimated
Sat 11:00:00 AM 51.5699 -16.8583 277° West  Level Estimated
Sat 11:01:00 AM 51.5838 -17.0563 277° West  Level Estimated
Sat 11:02:00 AM 51.5973 -17.2545 276° West  Level Estimated
Sat 11:03:00 AM 51.6105 -17.4527 276° West  Level Estimated
Sat 11:04:00 AM 51.6234 -17.6511 276° West  Level Estimated
Sat 11:05:00 AM 51.6360 -17.8496 276° West  Level Estimated
Sat 11:06:00 AM 51.6482 -18.0482 276° West  Level Estimated
Sat 11:07:00 AM 51.6601 -18.2469 276° West  Level Estimated
Sat 11:08:00 AM 51.6716 -18.4457 275° West  Level Estimated
Sat 11:09:00 AM 51.6829 -18.6446 275° West  Level Estimated
Sat 11:10:00 AM 51.6937 -18.8436 275° West  Level Estimated
Sat 11:11:00 AM 51.7043 -19.0427 275° West  Level Estimated
Sat 11:12:00 AM 51.7145 -19.2419 275° West  Level Estimated
Sat 11:13:00 AM 51.7244 -19.4412 275° West  Level Estimated
Sat 11:14:00 AM 51.7339 -19.6406 274° West  Level Estimated
Sat 11:15:00 AM 51.7431 -19.8400 274° West  Level Estimated
Sat 11:15:05 AM 50.0000 -20.0000 274° West 502 578 34,000  Level ETMS Enhanced Traffic Management System
Sat 11:16:00 AM 51.7519 -20.0396 274° West  Level Estimated
Sat 11:17:00 AM 51.7605 -20.2392 274° West  Level Estimated
Sat 11:18:00 AM 51.7687 -20.4389 274° West  Level Estimated
Sat 11:19:00 AM 51.7765 -20.6386 274° West  Level Estimated
Sat 11:20:00 AM 51.7840 -20.8384 274° West  Level Estimated
Sat 11:21:00 AM 50.0618 -21.7363 273° West 502 578 34,000  Level FlightAware Transoceanic
Sat 11:22:00 AM 50.0676 -21.9537 272° West 502 578 34,000  Level FlightAware Transoceanic
Sat 11:23:00 AM 50.0731 -22.1710 272° West 502 578 34,000  Level FlightAware Transoceanic
Sat 11:24:00 AM 50.0782 -22.3885 272° West 502 578 34,000  Level FlightAware Transoceanic
Sat 11:25:00 AM 50.0829 -22.6059 272° West 502 578 34,000  Level FlightAware Transoceanic
Sat 11:26:00 AM 50.0872 -22.8235 272° West 502 578 34,000  Level FlightAware Transoceanic
Sat 11:27:00 AM 50.0910 -23.0410 272° West 502 578 34,000  Level FlightAware Transoceanic
Sat 11:28:00 AM 50.0945 -23.2586 271° West 502 578 34,000  Level FlightAware Transoceanic
Sat 11:29:00 AM 50.0975 -23.4762 271° West 502 578 34,000  Level FlightAware Transoceanic
Sat 11:30:00 AM 50.1002 -23.6938 271° West 502 578 34,000  Level FlightAware Transoceanic
Sat 11:31:00 AM 50.1024 -23.9115 271° West 502 578 34,000  Level FlightAware Transoceanic
Sat 11:32:00 AM 50.1043 -24.1292 271° West 502 578 34,000  Level FlightAware Transoceanic
Sat 11:33:00 AM 50.1057 -24.3469 271° West 502 578 34,000  Level FlightAware Transoceanic
Sat 11:34:00 AM 50.1067 -24.5646 270° West 502 578 34,000  Level FlightAware Transoceanic
Sat 11:35:00 AM 50.1073 -24.7823 270° West 502 578 34,000  Level FlightAware Transoceanic
Sat 11:36:00 AM 50.1075 -25.0000 270° West 502 578 34,000  Level FlightAware Transoceanic
Sat 11:37:00 AM 50.1073 -25.2177 270° West 502 578 34,000  Level FlightAware Transoceanic
Sat 11:38:00 AM 50.1067 -25.4354 270° West 502 578 34,000  Level FlightAware Transoceanic
Sat 11:39:00 AM 50.1057 -25.6531 269° West 502 578 34,000  Level FlightAware Transoceanic
Sat 11:40:00 AM 50.1043 -25.8708 269° West 502 578 34,000  Level FlightAware Transoceanic
Sat 11:41:00 AM 50.1024 -26.0885 269° West 502 578 34,000  Level FlightAware Transoceanic
Sat 11:42:00 AM 50.1002 -26.3062 269° West 502 578 34,000  Level FlightAware Transoceanic
Sat 11:43:00 AM 50.0975 -26.5238 269° West 502 578 34,000  Level FlightAware Transoceanic
Sat 11:44:00 AM 50.0945 -26.7414 269° West 502 578 34,000  Level FlightAware Transoceanic
Sat 11:45:00 AM 50.0910 -26.9590 268° West 502 578 34,000  Level FlightAware Transoceanic
Sat 11:46:00 AM 50.0872 -27.1765 268° West 502 578 34,000  Level FlightAware Transoceanic
Sat 11:47:00 AM 50.0829 -27.3941 268° West 502 578 34,000  Level FlightAware Transoceanic
Sat 11:48:00 AM 50.0782 -27.6115 268° West 502 578 34,000  Level FlightAware Transoceanic
Sat 11:49:00 AM 50.0731 -27.8290 268° West 502 578 34,000  Level FlightAware Transoceanic
Sat 11:50:00 AM 50.0676 -28.0463 268° West 502 578 34,000  Level FlightAware Transoceanic
Sat 11:51:00 AM 50.0618 -28.2637 267° West 502 578 34,000  Level FlightAware Transoceanic
Sat 11:52:00 AM 50.0555 -28.4809 267° West 502 578 34,000  Level FlightAware Transoceanic
Sat 11:53:00 AM 50.0488 -28.6982 267° West 502 578 34,000  Level FlightAware Transoceanic
Sat 11:54:00 AM 50.0416 -28.9153 267° West 502 578 34,000  Level FlightAware Transoceanic
Sat 11:55:00 AM 50.0341 -29.1324 267° West 502 578 34,000  Level FlightAware Transoceanic
Sat 11:56:00 AM 50.0262 -29.3494 267° West 502 578 34,000  Level FlightAware Transoceanic
Sat 11:57:00 AM 50.0179 -29.5664 266° West 502 578 34,000  Level FlightAware Transoceanic
Sat 11:58:00 AM 50.0091 -29.7832 266° West 502 578 34,000  Level FlightAware Transoceanic
Sat 11:59:00 AM 50.0030 -29.9805 267° West  Level Estimated
Sat 12:00:00 PM 49.9965 -30.1778 267° West  Level Estimated
Sat 12:01:00 PM 49.9897 -30.3750 267° West  Level Estimated
Sat 12:02:00 PM 49.9825 -30.5721 267° West  Level Estimated
Sat 12:02:24 PM 50.0000 -30.0000 257° West 503 579 34,000  Level ETMS Enhanced Traffic Management System
Sat 12:03:00 PM 49.9750 -30.7692 267° West  Level Estimated
Sat 12:04:00 PM 49.9672 -30.9663 267° West  Level Estimated
Sat 12:05:00 PM 49.9590 -31.1632 266° West  Level Estimated
Sat 12:06:00 PM 49.9505 -31.3601 266° West  Level Estimated
Sat 12:07:00 PM 49.9417 -31.5569 266° West  Level Estimated
Sat 12:08:00 PM 49.6985 -31.8952 255° West 503 579 34,000  Level FlightAware Transoceanic
Sat 12:09:00 PM 49.6631 -32.1043 255° West 503 579 34,000  Level FlightAware Transoceanic
Sat 12:10:00 PM 49.6273 -32.3131 255° West 503 579 34,000  Level FlightAware Transoceanic
Sat 12:11:00 PM 49.5912 -32.5216 255° West 503 579 34,000  Level FlightAware Transoceanic
Sat 12:12:00 PM 49.5546 -32.7297 255° West 503 579 34,000  Level FlightAware Transoceanic
Sat 12:13:00 PM 49.5177 -32.9376 255° West 503 579 34,000  Level FlightAware Transoceanic
Sat 12:14:00 PM 49.4805 -33.1451 254° West 503 579 34,000  Level FlightAware Transoceanic
Sat 12:15:00 PM 49.4428 -33.3523 254° West 503 579 34,000  Level FlightAware Transoceanic
Sat 12:16:00 PM 49.4048 -33.5593 254° West 503 579 34,000  Level FlightAware Transoceanic
Sat 12:17:00 PM 49.3665 -33.7658 254° West 503 579 34,000  Level FlightAware Transoceanic
Sat 12:18:00 PM 49.3277 -33.9721 254° West 503 579 34,000  Level FlightAware Transoceanic
Sat 12:19:00 PM 49.2886 -34.1780 254° West 503 579 34,000  Level FlightAware Transoceanic
Sat 12:20:00 PM 49.2491 -34.3836 254° West 503 579 34,000  Level FlightAware Transoceanic
Sat 12:21:00 PM 49.2093 -34.5889 253° West 503 579 34,000  Level FlightAware Transoceanic
Sat 12:22:00 PM 49.1691 -34.7939 253° West 503 579 34,000  Level FlightAware Transoceanic
Sat 12:23:00 PM 49.1285 -34.9985 253° West 503 579 34,000  Level FlightAware Transoceanic
Sat 12:24:00 PM 49.0876 -35.2028 253° West 503 579 34,000  Level FlightAware Transoceanic
Sat 12:25:00 PM 49.0463 -35.4067 253° West 503 579 34,000  Level FlightAware Transoceanic
Sat 12:26:00 PM 49.0046 -35.6103 253° West 503 579 34,000  Level FlightAware Transoceanic
Sat 12:27:00 PM 48.9626 -35.8135 252° West 503 579 34,000  Level FlightAware Transoceanic
Sat 12:28:00 PM 48.9203 -36.0164 252° West 503 579 34,000  Level FlightAware Transoceanic
Sat 12:29:00 PM 48.8776 -36.2190 252° West 503 579 34,000  Level FlightAware Transoceanic
Sat 12:30:00 PM 48.8345 -36.4212 252° West 503 579 34,000  Level FlightAware Transoceanic
Sat 12:31:00 PM 48.7911 -36.6231 252° West 503 579 34,000  Level FlightAware Transoceanic
Sat 12:32:00 PM 48.7473 -36.8246 252° West 503 579 34,000  Level FlightAware Transoceanic
Sat 12:33:00 PM 48.7032 -37.0258 252° West 503 579 34,000  Level FlightAware Transoceanic
Sat 12:34:00 PM 48.6587 -37.2266 251° West 503 579 34,000  Level FlightAware Transoceanic
Sat 12:35:00 PM 48.6139 -37.4271 251° West 503 579 34,000  Level FlightAware Transoceanic
Sat 12:36:00 PM 48.5687 -37.6272 251° West 503 579 34,000  Level FlightAware Transoceanic
Sat 12:37:00 PM 48.5232 -37.8269 251° West 503 579 34,000  Level FlightAware Transoceanic
Sat 12:38:00 PM 48.4773 -38.0263 251° West 503 579 34,000  Level FlightAware Transoceanic
Sat 12:39:00 PM 48.4311 -38.2253 251° West 503 579 34,000  Level FlightAware Transoceanic
Sat 12:40:00 PM 48.3846 -38.4240 250° West 503 579 34,000  Level FlightAware Transoceanic
Sat 12:41:00 PM 48.3377 -38.6223 250° West 503 579 34,000  Level FlightAware Transoceanic
Sat 12:42:00 PM 48.2905 -38.8202 250° West 503 579 34,000  Level FlightAware Transoceanic
Sat 12:43:00 PM 48.2429 -39.0177 250° West 503 579 34,000  Level FlightAware Transoceanic
Sat 12:44:00 PM 48.1950 -39.2149 250° West 503 579 34,000  Level FlightAware Transoceanic
Sat 12:45:00 PM 48.1467 -39.4118 250° West 503 579 34,000  Level FlightAware Transoceanic
Sat 12:46:00 PM 48.0982 -39.6082 250° West 503 579 34,000  Level FlightAware Transoceanic
Sat 12:47:00 PM 48.0493 -39.8043 249° West 503 579 34,000  Level FlightAware Transoceanic
Sat 12:48:00 PM 48.0281 -39.9915 260° West  Level Estimated
Sat 12:49:00 PM 48.0066 -40.1786 260° West  Level Estimated
Sat 12:50:00 PM 47.9849 -40.3655 260° West  Level Estimated
Sat 12:50:00 PM 48.0000 -40.0000 257° West 511 588 34,000  Level ETMS Enhanced Traffic Management System
Sat 12:51:00 PM 47.9628 -40.5523 260° West  Level Estimated
Sat 12:52:00 PM 47.9404 -40.7389 260° West  Level Estimated
Sat 12:53:00 PM 47.9178 -40.9253 260° West  Level Estimated
Sat 12:54:00 PM 47.8948 -41.1116 260° West  Level Estimated
Sat 12:55:00 PM 47.8715 -41.2977 260° West  Level Estimated
Sat 12:56:00 PM 47.7733 -41.4435 256° West 511 588 34,000  Level FlightAware Transoceanic
Sat 12:57:00 PM 47.7395 -41.6487 256° West 511 588 34,000  Level FlightAware Transoceanic
Sat 12:58:00 PM 47.7053 -41.8536 256° West 511 588 34,000  Level FlightAware Transoceanic
Sat 12:59:00 PM 47.6707 -42.0582 256° West 511 588 34,000  Level FlightAware Transoceanic
Sat 01:00:00 PM 47.6357 -42.2626 256° West 511 588 34,000  Level FlightAware Transoceanic
Sat 01:01:00 PM 47.6004 -42.4666 256° West 511 588 34,000  Level FlightAware Transoceanic
Sat 01:02:00 PM 47.5648 -42.6704 255° West 511 588 34,000  Level FlightAware Transoceanic
Sat 01:03:00 PM 47.5287 -42.8740 255° West 511 588 34,000  Level FlightAware Transoceanic
Sat 01:04:00 PM 47.4924 -43.0772 255° West 511 588 34,000  Level FlightAware Transoceanic
Sat 01:05:00 PM 47.4556 -43.2802 255° West 511 588 34,000  Level FlightAware Transoceanic
Sat 01:06:00 PM 47.4185 -43.4829 255° West 511 588 34,000  Level FlightAware Transoceanic
Sat 01:07:00 PM 47.3810 -43.6853 255° West 511 588 34,000  Level FlightAware Transoceanic
Sat 01:08:00 PM 47.3432 -43.8874 254° West 511 588 34,000  Level FlightAware Transoceanic
Sat 01:09:00 PM 47.3050 -44.0892 254° West 511 588 34,000  Level FlightAware Transoceanic
Sat 01:10:00 PM 47.2665 -44.2907 254° West 511 588 34,000  Level FlightAware Transoceanic
Sat 01:11:00 PM 47.2276 -44.4919 254° West 511 588 34,000  Level FlightAware Transoceanic
Sat 01:12:00 PM 47.1884 -44.6929 254° West 511 588 34,000  Level FlightAware Transoceanic
Sat 01:13:00 PM 47.1488 -44.8935 254° West 511 588 34,000  Level FlightAware Transoceanic
Sat 01:14:00 PM 47.1089 -45.0938 254° West 511 588 34,000  Level FlightAware Transoceanic
Sat 01:15:00 PM 47.0686 -45.2939 253° West 511 588 34,000  Level FlightAware Transoceanic
Sat 01:16:00 PM 47.0280 -45.4936 253° West 511 588 34,000  Level FlightAware Transoceanic
Sat 01:17:00 PM 46.9870 -45.6930 253° West 511 588 34,000  Level FlightAware Transoceanic
Sat 01:18:00 PM 46.9457 -45.8921 253° West 511 588 34,000  Level FlightAware Transoceanic
Sat 01:19:00 PM 46.9040 -46.0909 253° West 511 588 34,000  Level FlightAware Transoceanic
Sat 01:20:00 PM 46.8620 -46.2894 253° West 511 588 34,000  Level FlightAware Transoceanic
Sat 01:21:00 PM 46.8197 -46.4876 253° West 511 588 34,000  Level FlightAware Transoceanic
Sat 01:22:00 PM 46.7770 -46.6855 252° West 511 588 34,000  Level FlightAware Transoceanic
Sat 01:23:00 PM 46.7340 -46.8830 252° West 511 588 34,000  Level FlightAware Transoceanic
Sat 01:24:00 PM 46.6906 -47.0803 252° West 511 588 34,000  Level FlightAware Transoceanic
Sat 01:25:00 PM 46.6469 -47.2772 252° West 511 588 34,000  Level FlightAware Transoceanic
Sat 01:26:00 PM 46.6028 -47.4738 252° West 511 588 34,000  Level FlightAware Transoceanic
Sat 01:27:00 PM 46.5584 -47.6701 252° West 511 588 34,000  Level FlightAware Transoceanic
Sat 01:28:00 PM 46.5137 -47.8661 252° West 511 588 34,000  Level FlightAware Transoceanic
Sat 01:29:00 PM 46.4687 -48.0617 251° West 511 588 34,000  Level FlightAware Transoceanic
Sat 01:30:00 PM 46.4233 -48.2570 251° West 511 588 34,000  Level FlightAware Transoceanic
Sat 01:31:00 PM 46.3776 -48.4520 251° West 511 588 34,000  Level FlightAware Transoceanic
Sat 01:32:00 PM 46.3315 -48.6466 251° West 511 588 34,000  Level FlightAware Transoceanic
Sat 01:33:00 PM 46.2851 -48.8410 251° West 511 588 34,000  Level FlightAware Transoceanic
Sat 01:34:00 PM 46.2384 -49.0350 251° West 511 588 34,000  Level FlightAware Transoceanic
Sat 01:35:00 PM 46.1914 -49.2287 251° West 511 588 34,000  Level FlightAware Transoceanic
Sat 01:36:00 PM 46.1440 -49.4220 250° West 511 588 34,000  Level FlightAware Transoceanic
Sat 01:37:00 PM 46.0964 -49.6150 250° West 511 588 34,000  Level FlightAware Transoceanic
Sat 01:38:00 PM 46.0483 -49.8077 250° West 511 588 34,000  Level FlightAware Transoceanic
Sat 01:39:00 PM 46.0121 -49.9829 253° West  Level Estimated
Sat 01:39:00 PM 46.0000 -50.0000 257° West 428 493 34,000  Level ETMS Enhanced Traffic Management System
Sat 01:40:00 PM 45.9755 -50.1580 253° West  Level Estimated
Sat 01:41:00 PM 45.9388 -50.3327 253° West  Level Estimated
Sat 01:42:00 PM 45.9017 -50.5073 253° West  Level Estimated
Sat 01:42:02 PM 45.8833 -50.5667 257° West 500 575 34,000  Level Gander Center
Sat 01:43:00 PM 45.8762 -50.6926 259° West  Level FlightAware Approximate
Sat 01:43:02 PM 45.8500 -50.7500 255° West 500 575 34,000  Level Gander Center
Sat 01:44:00 PM 45.8505 -50.8778 259° West  Level FlightAware Approximate
Sat 01:44:02 PM 45.8333 -50.9500 263° West 500 575 34,000  Level Gander Center
Sat 01:45:00 PM 45.8167 -51.1028 257° West  Level FlightAware Approximate
Sat 01:45:02 PM 45.8500 -51.1667 276° West 500 575 34,900  Level Gander Center
Sat 01:46:00 PM 45.7867 -51.2864 257° West  Level FlightAware Approximate
Sat 01:46:02 PM 45.8333 -51.3500 263° West 500 575 35,900  Level Gander Center
Sat 01:47:00 PM 45.7565 -51.4699 257° West  Level FlightAware Approximate
Sat 01:47:02 PM 45.8167 -51.5500 263° West 500 575 36,000  Level Gander Center
Sat 01:48:02 PM 45.8000 -51.7500 263° West 500 575 36,000  Level Gander Center
Sat 01:49:02 PM 45.7833 -51.9333 263° West 500 575 36,000  Level Gander Center
Sat 01:50:02 PM 45.7667 -52.1333 263° West 490 564 36,000  Level Gander Center
Sat 01:51:02 PM 45.7500 -52.3333 263° West 490 564 36,000  Level Gander Center
Sat 01:52:02 PM 45.7333 -52.5333 263° West 500 575 36,000  Level Gander Center
Sat 01:52:48 PM 45.7167 -52.6667 260° West 500 575 36,000  Level Gander Center
Sat 01:53:05 PM 45.7000 -52.7333 250° West 490 564 36,000  Level Moncton Center
Sat 01:54:05 PM 45.6833 -52.9333 263° West 490 564 36,000  Level Moncton Center
Sat 02:00:17 PM 45.5980 -54.1870 263° West 503 579 36,000  Level FlightAware ADS-B
Sat 02:00:57 PM 45.5860 -54.3140 262° West 502 578 36,000  Level FlightAware ADS-B
Sat 02:01:47 PM 45.5700 -54.4660 262° West 502 578 36,000  Level FlightAware ADS-B
Sat 02:02:37 PM 45.5540 -54.6050 261° West 502 578 36,000  Level FlightAware ADS-B
Sat 02:03:17 PM 45.5420 -54.7170 261° West 502 578 36,000  Level FlightAware ADS-B
Sat 02:03:57 PM 45.5300 -54.8280 261° West 502 578 36,000  Level FlightAware ADS-B
Sat 02:04:37 PM 45.5170 -54.9390 261° West 502 578 36,000  Level FlightAware ADS-B
Sat 02:05:17 PM 45.5050 -55.0510 261° West 502 578 36,000  Level FlightAware ADS-B
Sat 02:06:07 PM 45.4900 -55.1900 261° West 502 578 36,000  Level FlightAware ADS-B
Sat 02:06:47 PM 45.4770 -55.3010 261° West 502 578 36,000  Level FlightAware ADS-B
Sat 02:07:27 PM 45.4650 -55.4120 261° West 502 578 36,000  Level FlightAware ADS-B
Sat 02:08:07 PM 45.4520 -55.5230 261° West 502 578 36,000  Level FlightAware ADS-B
Sat 02:08:47 PM 45.4400 -55.6350 261° West 502 578 36,000  Level FlightAware ADS-B
Sat 02:09:37 PM 45.4250 -55.7740 261° West 502 578 36,000  Level FlightAware ADS-B
Sat 02:10:17 PM 45.4120 -55.8850 261° West 502 578 36,000  Level FlightAware ADS-B
Sat 02:10:57 PM 45.4000 -55.9960 261° West 502 578 36,000  Level FlightAware ADS-B
Sat 02:16:17 PM 45.2500 -57.2840 261° West 496 571 36,000  Level FlightAware ADS-B
Sat 02:17:02 PM 45.2320 -57.4250 260° West 496 571 36,000  Level FlightAware ADS-B
Sat 02:17:47 PM 45.2130 -57.5720 260° West 496 571 36,000  Level FlightAware ADS-B
Sat 02:18:27 PM 45.1970 -57.7000 260° West 496 571 36,000  Level FlightAware ADS-B
Sat 02:19:12 PM 45.1780 -57.8430 259° West 496 571 36,000  Level FlightAware ADS-B
Sat 02:19:42 PM 45.1670 -57.9290 260° West 495 570 36,000  Level FlightAware ADS-B
Sat 02:20:27 PM 45.1490 -58.0620 259° West 495 570 36,000  Level FlightAware ADS-B
Sat 02:21:27 PM 45.1210 -58.2660 259° West 493 567 36,000  Level FlightAware ADS-B
Sat 02:22:22 PM 45.0970 -58.4460 259° West 493 567 36,000  Level FlightAware ADS-B
Sat 02:23:07 PM 45.0770 -58.5880 259° West 493 567 36,000  Level FlightAware ADS-B
Sat 02:23:47 PM 45.0590 -58.7170 259° West 493 567 36,000  Level FlightAware ADS-B
Sat 02:24:32 PM 45.0400 -58.8560 259° West 493 567 36,000  Level FlightAware ADS-B
Sat 02:25:12 PM 45.0220 -58.9790 258° West 493 567 36,000  Level FlightAware ADS-B
Sat 02:25:57 PM 45.0010 -59.1240 258° West 493 567 36,000  Level FlightAware ADS-B
Sat 02:26:37 PM 44.9830 -59.2540 259° West 492 566 36,000  Level FlightAware ADS-B
Sat 02:27:17 PM 44.9640 -59.3800 258° West 492 566 36,000  Level FlightAware ADS-B
Sat 02:28:02 PM 44.9440 -59.5180 258° West 492 566 36,000  Level FlightAware ADS-B
Sat 02:28:42 PM 44.9260 -59.6430 259° West 491 565 36,000  Level FlightAware ADS-B
Sat 02:29:22 PM 44.9070 -59.7680 258° West 490 564 36,000  Level FlightAware ADS-B
Sat 02:30:07 PM 44.8850 -59.9120 258° West 488 562 36,000  Level FlightAware ADS-B
Sat 02:30:47 PM 44.8660 -60.0360 258° West 487 560 36,000  Level FlightAware ADS-B
Sat 02:31:32 PM 44.8450 -60.1720 258° West 487 560 36,000  Level FlightAware ADS-B
Sat 02:32:07 PM 44.8280 -60.2810 258° West 487 560 36,000  Level FlightAware ADS-B
Sat 02:32:52 PM 44.8080 -60.4020 257° West 487 560 36,000  Level FlightAware ADS-B
Sat 02:33:32 PM 44.7910 -60.5070 257° West 487 560 36,000  Level FlightAware ADS-B
Sat 02:34:12 PM 44.7740 -60.6120 257° West 487 560 36,000  Level FlightAware ADS-B
Sat 02:35:02 PM 44.7520 -60.7440 257° West 487 560 36,000  Level FlightAware ADS-B
Sat 02:35:42 PM 44.7350 -60.8490 257° West 487 560 36,000  Level FlightAware ADS-B
Sat 02:36:22 PM 44.7180 -60.9540 257° West 487 560 36,000  Level FlightAware ADS-B
Sat 02:37:02 PM 44.7010 -61.0590 257° West 487 560 36,000  Level FlightAware ADS-B
Sat 02:37:42 PM 44.6830 -61.1640 256° West 487 560 36,000  Level FlightAware ADS-B
Sat 02:38:32 PM 44.6620 -61.2950 257° West 487 560 36,000  Level FlightAware ADS-B
Sat 02:39:12 PM 44.6450 -61.4000 257° West 487 560 36,000  Level FlightAware ADS-B
Sat 02:39:52 PM 44.6270 -61.5050 256° West 487 560 36,000  Level FlightAware ADS-B
Sat 02:40:32 PM 44.6100 -61.6100 257° West 487 560 36,000  Level FlightAware ADS-B
Sat 02:41:12 PM 44.5930 -61.7140 257° West 487 560 36,000  Level FlightAware ADS-B
Sat 02:42:02 PM 44.5710 -61.8450 257° West 487 560 36,000  Level FlightAware ADS-B
Sat 02:42:42 PM 44.5090 -62.2220 257° West 36,000  Level FlightAware ADS-B
Sat 02:44:22 PM 44.4560 -62.5270 256° West 487 560 36,000  Level FlightAware ADS-B
Sat 02:45:02 PM 44.4330 -62.6550 256° West 487 560 36,000  Level FlightAware ADS-B
Sat 02:45:47 PM 44.4090 -62.7920 256° West 487 560 36,000  Level FlightAware ADS-B
Sat 02:46:22 PM 44.3900 -62.8930 255° West 486 559 36,000  Level FlightAware ADS-B
Sat 02:47:07 PM 44.3660 -63.0290 256° West 485 558 36,000  Level FlightAware ADS-B
Sat 02:47:52 PM 44.3400 -63.1710 256° West 483 556 36,000  Level FlightAware ADS-B
Sat 02:48:32 PM 44.3190 -63.2890 256° West 482 555 36,000  Level FlightAware ADS-B
Sat 02:49:07 PM 44.3000 -63.3880 255° West 481 554 36,000  Level FlightAware ADS-B
Sat 02:49:52 PM 44.2750 -63.5260 256° West 480 552 36,000  Level FlightAware ADS-B
Sat 02:50:37 PM 44.2480 -63.6660 255° West 479 551 36,000  Level FlightAware ADS-B
Sat 02:51:22 PM 44.2240 -63.7940 255° West 478 550 36,000  Level FlightAware ADS-B
Sat 02:52:02 PM 44.1990 -63.9240 255° West 478 550 36,000  Level FlightAware ADS-B
Sat 02:52:42 PM 44.1790 -64.0310 255° West 478 550 36,000  Level FlightAware ADS-B
Sat 02:53:57 PM 44.1330 -64.2660 255° West 476 548 36,000  Level FlightAware ADS-B
Sat 02:55:02 PM 44.1000 -64.4390 255° West 476 548 36,000  Level FlightAware ADS-B
Sat 02:55:47 PM 44.0730 -64.5770 255° West 480 552 36,000  Level FlightAware ADS-B
Sat 02:56:27 PM 44.0460 -64.7110 254° West 480 552 36,000  Level FlightAware ADS-B
Sat 02:57:37 PM 44.0040 -64.9190 254° West 480 552 36,000  Level FlightAware ADS-B
Sat 02:58:52 PM 43.9590 -65.1420 254° West 481 554 36,000  Level FlightAware ADS-B
Sat 02:59:37 PM 43.9320 -65.2780 255° West 482 555 36,000  Level FlightAware ADS-B
Sat 03:01:12 PM 43.8740 -65.5580 254° West 482 555 36,000  Level FlightAware ADS-B
Sat 03:02:32 PM 43.8250 -65.7950 254° West 483 556 36,000  Level FlightAware ADS-B
Sat 03:03:42 PM 43.7810 -66.0030 254° West 482 555 36,000  Level FlightAware ADS-B
Sat 03:05:07 PM 43.7300 -66.2410 254° West 483 556 36,000  Level FlightAware ADS-B
Sat 03:05:52 PM 43.7010 -66.3800 254° West 484 557 36,000  Level FlightAware ADS-B
Sat 03:06:32 PM 43.6750 -66.4990 253° West 485 558 36,000  Level FlightAware ADS-B
Sat 03:07:12 PM 43.6510 -66.6090 253° West 486 559 36,000  Level FlightAware ADS-B
Sat 03:07:57 PM 43.6190 -66.7520 253° West 486 559 36,000  Level FlightAware ADS-B
Sat 03:08:37 PM 43.5930 -66.8720 253° West 486 559 36,000  Level FlightAware ADS-B
Sat 03:09:22 PM 43.5630 -67.0050 253° West 486 559 36,000  Level FlightAware ADS-B
Sat 03:10:02 PM 43.5370 -67.1210 253° West 486 559 36,000  Level FlightAware ADS-B
Sat 03:10:47 PM 43.5090 -67.2590 254° West 487 560 36,000  Level FlightAware ADS-B
Sat 03:11:27 PM 43.4830 -67.3790 253° West 488 562 36,000  Level FlightAware ADS-B
Sat 03:12:02 PM 43.4600 -67.4830 253° West 488 562 36,000  Level FlightAware ADS-B
Sat 03:12:52 PM 43.4270 -67.6330 253° West 493 567 36,000  Level FlightAware ADS-B
Sat 03:13:32 PM 43.4000 -67.7530 253° West 494 568 36,000  Level FlightAware ADS-B
Sat 03:14:12 PM 43.3730 -67.8730 253° West 496 571 36,000  Level FlightAware ADS-B
Sat 03:15:27 PM 43.3230 -68.0870 252° West 496 571 36,000  Level FlightAware ADS-B
Sat 03:16:07 PM 43.2990 -68.1890 252° West 496 571 36,000  Level FlightAware ADS-B
Sat 03:16:57 PM 43.2600 -68.3700 254° West 502 578 36,000  Level FlightAware ADS-B
Sat 03:19:22 PM 43.1590 -68.8080 253° West 503 579 36,000  Level FlightAware ADS-B
Sat 03:20:22 PM 43.1130 -69.0000 252° West 508 585 36,000  Level FlightAware ADS-B
Sat 03:21:02 PM 43.0830 -69.1290 252° West 509 586 36,000  Level FlightAware ADS-B
Sat 03:22:02 PM 43.0400 -69.3090 252° West 508 585 36,000  Level FlightAware ADS-B
Sat 03:22:42 PM 43.0100 -69.4310 251° West 508 585 36,000  Level FlightAware ADS-B
Sat 03:23:22 PM 42.9810 -69.5530 252° West 507 583 36,000  Level FlightAware ADS-B
Sat 03:24:05 PM 42.9333 -69.6667 252° West 510 587 36,000  Level Moncton Center
Sat 03:24:20 PM 42.9525 -69.6714 350° North 508 585 36,000  Level Boston Center
Sat 03:25:20 PM 42.9011 -69.8892 252° West 508 585 36,000  Level Boston Center
Sat 03:26:20 PM 42.8572 -70.0722 252° West 508 585 36,000  Level Boston Center
Sat 03:27:20 PM 42.8086 -70.2525 250° West 508 585 36,000  Level Boston Center
Sat 03:28:20 PM 42.7661 -70.4319 252° West 508 585 36,000  Level Boston Center
Sat 03:29:20 PM 42.7233 -70.6117 252° West 503 579 36,000  Level Boston Center
Sat 03:30:20 PM 42.6761 -70.7908 250° West 503 579 36,000  Level Boston Center
Sat 03:31:20 PM 42.6328 -70.9697 252° West 503 579 36,000  Level Boston Center
Sat 03:32:20 PM 42.5889 -71.1400 251° West 503 579 36,000  Level Boston Center
Sat 03:33:20 PM 42.5428 -71.3214 251° West 503 579 36,000  Level Boston Center
Sat 03:38:47 PM 42.2840 -72.2700 251° West 482 555 36,000  Level FlightAware ADS-B
Sat 03:39:32 PM 42.2510 -72.3910 250° West 482 555 36,000  Level FlightAware ADS-B
Sat 03:40:12 PM 42.2190 -72.5070 250° West 481 554 36,000  Level FlightAware ADS-B
Sat 03:40:52 PM 42.1890 -72.6190 250° West 481 554 36,000  Level FlightAware ADS-B
Sat 03:41:27 PM 42.1610 -72.7080 247° West 488 562 36,000  Level FlightAware ADS-B
Sat 03:41:52 PM 42.1226 -72.7844 236° Southwest 498 573 36,000  Level FlightAware ADS-B
Sat 03:42:24 PM 42.0739 -72.8604 229° Southwest 500 575 36,000  Level FlightAware ADS-B
Sat 03:42:56 PM 42.0268 -72.9362 230° Southwest 500 575 36,000  Level FlightAware ADS-B
Sat 03:43:26 PM 41.9818 -73.0075 230° Southwest 500 575 36,000  Level FlightAware ADS-B
Sat 03:43:58 PM 41.9346 -73.0837 230° Southwest 499 574 36,000  Level FlightAware ADS-B
Sat 03:44:29 PM 41.8874 -73.1556 229° Southwest 499 574 36,000  Level FlightAware ADS-B
Sat 03:45:07 PM 41.8279 -73.2427 228° Southwest 499 574 36,000  Level FlightAware ADS-B
Sat 03:45:39 PM 41.7787 -73.3162 228° Southwest 497 572 36,000  Level FlightAware ADS-B
Sat 03:46:12 PM 41.7295 -73.3918 229° Southwest 496 571 36,000  Level FlightAware ADS-B
Sat 03:46:44 PM 41.6797 -73.4650 228° Southwest 494 568 36,000  Level FlightAware ADS-B
Sat 03:47:15 PM 41.6333 -73.5355 229° Southwest 492 566 36,000  Level FlightAware ADS-B
Sat 03:47:49 PM 41.5817 -73.6121 228° Southwest 490 564 36,000  Level FlightAware ADS-B
Sat 03:48:19 PM 41.5360 -73.6796 228° Southwest 490 564 36,000  Level FlightAware ADS-B
Sat 03:48:23 PM 41.5299 -73.6885 228° Southwest 489 563 36,000  Level FlightAware ADS-B
Sat 03:48:50 PM 41.4894 -73.7492 228° Southwest 490 564 36,000  Level FlightAware ADS-B
Sat 03:49:05 PM 41.4665 -73.7826 228° Southwest 489 563 36,000  Level FlightAware ADS-B
Sat 03:49:20 PM 41.4433 -73.8162 227° Southwest 489 563 36,000  Level FlightAware ADS-B
Sat 03:49:45 PM 41.4050 -73.8719 227° Southwest 489 563 36,000  Level FlightAware ADS-B
Sat 03:49:51 PM 41.3957 -73.8854 227° Southwest 488 562 36,000  Level FlightAware ADS-B
Sat 03:50:15 PM 41.3591 -73.9388 228° Southwest 488 562 36,000  Level FlightAware ADS-B
Sat 03:50:22 PM 41.3497 -73.9543 231° Southwest 488 562 36,000  Level FlightAware ADS-B
Sat 03:50:53 PM 41.3018 -74.0232 227° Southwest 488 562 36,000  Level FlightAware ADS-B
Sat 03:50:58 PM 41.2943 -74.0345 229° Southwest 488 562 36,000  Level FlightAware ADS-B
Sat 03:51:26 PM 41.2519 -74.0965 228° Southwest 488 562 36,000  Level FlightAware ADS-B
Sat 03:51:28 PM 41.2480 -74.1010 221° Southwest 488 562 36,000  Level FlightAware ADS-B
Sat 03:51:58 PM 41.2033 -74.1674 228° Southwest 488 562 36,000  Level FlightAware ADS-B
Sat 03:52:28 PM 41.1575 -74.2335 227° Southwest 488 562 36,000  Level FlightAware ADS-B
Sat 03:52:58 PM 41.1116 -74.2997 227° Southwest 488 562 36,000  Level FlightAware ADS-B
Sat 03:53:00 PM 41.1077 -74.3063 232° Southwest 488 562 36,000  Level FlightAware ADS-B
Sat 03:53:30 PM 41.0621 -74.3723 228° Southwest 486 559 36,000  Level FlightAware ADS-B
Sat 03:54:01 PM 41.0157 -74.4380 227° Southwest 486 559 36,000  Level FlightAware ADS-B
Sat 03:54:31 PM 40.9698 -74.5037 227° Southwest 485 558 36,000  Level FlightAware ADS-B
Sat 03:55:03 PM 40.9217 -74.5735 228° Southwest 485 558 36,000  Level FlightAware ADS-B
Sat 03:55:34 PM 40.8740 -74.6408 227° Southwest 484 557 36,000  Level FlightAware ADS-B
Sat 03:56:05 PM 40.8279 -74.7080 228° Southwest 484 557 36,000  Level FlightAware ADS-B
Sat 03:56:38 PM 40.7772 -74.7794 227° Southwest 483 556 36,000  Level FlightAware ADS-B
Sat 03:57:11 PM 40.7267 -74.8508 227° Southwest 483 556 36,000  Level FlightAware ADS-B
Sat 03:57:42 PM 40.6804 -74.9175 228° Southwest 483 556 36,000  Level FlightAware ADS-B
Sat 03:58:12 PM 40.6345 -74.9819 227° Southwest 481 554 36,000  Level FlightAware ADS-B
Sat 03:58:43 PM 40.5870 -75.0482 227° Southwest 480 552 36,000  Level FlightAware ADS-B
Sat 03:59:14 PM 40.5412 -75.1144 228° Southwest 480 552 36,000  Level FlightAware ADS-B
Sat 03:59:44 PM 40.4957 -75.1782 227° Southwest 480 552 36,000  Level FlightAware ADS-B
Sat 04:00:14 PM 40.4496 -75.2421 227° Southwest 479 551 36,000  Level FlightAware ADS-B
Sat 04:00:29 PM 40.4268 -75.2765 229° Southwest 478 550 36,000  Level FlightAware ADS-B
Sat 04:00:44 PM 40.4082 -75.3094 233° Southwest 476 548 36,000  Level FlightAware ADS-B
Sat 04:01:03 PM 40.3832 -75.3537 233° Southwest 476 548 36,000  Level FlightAware ADS-B
Sat 04:01:14 PM 40.3679 -75.3782 231° Southwest 478 550 36,000  Level FlightAware ADS-B
Sat 04:01:28 PM 40.3470 -75.4076 227° Southwest 478 550 36,000  Level FlightAware ADS-B
Sat 04:01:58 PM 40.2987 -75.4669 223° Southwest 478 550 36,000  Level FlightAware ADS-B
Sat 04:02:28 PM 40.2497 -75.5263 223° Southwest 477 549 36,000  Level FlightAware ADS-B
Sat 04:02:55 PM 40.2121 -75.5856 230° Southwest 474 545 36,000  Level FlightAware ADS-B
Sat 04:03:25 PM 40.1741 -75.6559 235° Southwest 473 544 36,000  Level FlightAware ADS-B
Sat 04:03:55 PM 40.1366 -75.7292 236° Southwest 472 543 36,000  Level FlightAware ADS-B
Sat 04:04:26 PM 40.1004 -75.8003 236° Southwest 471 542 36,000  Level FlightAware ADS-B
Sat 04:04:57 PM 40.0635 -75.8740 237° Southwest 470 541 36,000  Level FlightAware ADS-B
Sat 04:05:27 PM 40.0277 -75.9449 237° Southwest 469 540 36,000  Level FlightAware ADS-B
Sat 04:05:57 PM 39.9917 -76.0157 236° Southwest 468 539 36,000  Level FlightAware ADS-B
Sat 04:06:29 PM 39.9538 -76.0908 237° Southwest 466 536 36,000  Level FlightAware ADS-B
Sat 04:07:01 PM 39.9155 -76.1656 236° Southwest 465 535 36,000  Level FlightAware ADS-B
Sat 04:07:32 PM 39.8789 -76.2378 237° Southwest 465 535 36,000  Level FlightAware ADS-B
Sat 04:08:02 PM 39.8429 -76.3076 236° Southwest 465 535 36,000  Level FlightAware ADS-B
Sat 04:08:35 PM 39.8031 -76.3842 236° Southwest 465 535 36,000  Level FlightAware ADS-B
Sat 04:09:09 PM 39.7627 -76.4632 236° Southwest 465 535 36,000  Level FlightAware ADS-B
Sat 04:09:39 PM 39.7260 -76.5350 236° Southwest 466 536 36,000  Level FlightAware ADS-B
Sat 04:10:10 PM 39.6892 -76.6046 236° Southwest 466 536 36,000  Level FlightAware ADS-B
Sat 04:10:41 PM 39.6521 -76.6764 236° Southwest 465 535 36,000  Level FlightAware ADS-B
Sat 04:11:16 PM 39.6102 -76.7571 236° Southwest 464 534 36,000  Level FlightAware ADS-B
Sat 04:11:46 PM 39.5739 -76.8262 236° Southwest 463 533 36,000  Level FlightAware ADS-B
Sat 04:12:16 PM 39.5379 -76.8951 236° Southwest 463 533 36,000  Level FlightAware ADS-B
Sat 04:12:47 PM 39.5012 -76.9664 236° Southwest 463 533 36,000  Level FlightAware ADS-B
Sat 04:13:05 PM 39.4807 -77.0112 239° Southwest 462 532 36,000  Level FlightAware ADS-B
Sat 04:13:30 PM 39.4541 -77.0662 238° Southwest 462 532 36,000  Level FlightAware ADS-B
Sat 04:14:03 PM 39.4162 -77.1458 238° Southwest 463 533 36,000  Level FlightAware ADS-B
Sat 04:14:33 PM 39.3829 -77.2193 240° Southwest 464 534 36,000  Level FlightAware ADS-B
Sat 04:15:12 PM 39.3406 -77.3100 239° Southwest 465 535 36,000  Level FlightAware ADS-B
Sat 04:15:45 PM 39.3031 -77.3910 239° Southwest 467 537 36,000  Level FlightAware ADS-B
Sat 04:16:22 PM 39.2620 -77.4767 238° Southwest 467 537 36,000  Level FlightAware ADS-B
Sat 04:16:52 PM 39.2340 -77.5360 239° Southwest 468 539 36,000  Level FlightAware ADS-B
Sat 04:17:12 PM 39.2062 -77.5955 239° Southwest 466 536 36,000  Level FlightAware ADS-B
Sat 04:18:07 PM 39.1438 -77.7253 238° Southwest 465 535 36,000  Level FlightAware ADS-B
Sat 04:18:47 PM 39.1030 -77.8100 238° Southwest 466 536 36,000  Level FlightAware ADS-B
Sat 04:19:37 PM 39.0470 -77.9280 239° Southwest 465 535 36,000  Level FlightAware ADS-B
Sat 04:20:22 PM 38.9940 -78.0380 238° Southwest 462 532 36,000  Level FlightAware ADS-B
Sat 04:20:57 PM 38.9550 -78.1200 239° Southwest 459 528 36,000  Level FlightAware ADS-B
Sat 04:21:42 PM 38.9080 -78.2170 238° Southwest 457 526 36,000  Level FlightAware ADS-B
Sat 04:22:27 PM 38.8580 -78.3210 238° Southwest 456 525 36,000  Level FlightAware ADS-B
Sat 04:23:07 PM 38.8170 -78.4030 237° Southwest 458 527 36,000  Level FlightAware ADS-B
Sat 04:23:52 PM 38.7660 -78.5090 238° Southwest 457 526 36,000  Level FlightAware ADS-B
Sat 04:24:27 PM 38.7270 -78.5890 238° Southwest 459 528 36,000  Level FlightAware ADS-B
Sat 04:25:07 PM 38.6780 -78.6880 238° Southwest 459 528 36,000  Level FlightAware ADS-B
Sat 04:25:57 PM 38.6210 -78.8030 238° Southwest 459 528 36,000  Level FlightAware ADS-B
Sat 04:26:37 PM 38.5740 -78.8980 238° Southwest 460 529 36,000  Level FlightAware ADS-B
Sat 04:28:57 PM 38.4180 -79.2130 238° Southwest 36,000  Level FlightAware ADS-B
Sat 04:29:22 PM 38.3890 -79.2690 237° Southwest 460 529 36,000  Level FlightAware ADS-B
Sat 04:30:07 PM 38.3350 -79.3800 238° Southwest 464 534 36,000  Level FlightAware ADS-B
Sat 04:30:47 PM 38.2880 -79.4710 237° Southwest 464 534 36,000  Level FlightAware ADS-B
Sat 04:31:32 PM 38.2320 -79.5820 237° Southwest 466 536 36,000  Level FlightAware ADS-B
Sat 04:32:12 PM 38.1910 -79.6630 237° Southwest 466 536 36,000  Level FlightAware ADS-B
Sat 04:32:52 PM 38.1510 -79.7420 237° Southwest 466 536 36,000  Level FlightAware ADS-B
Sat 04:33:47 PM 38.0770 -79.8890 237° Southwest 466 536 36,000  Level FlightAware ADS-B
Sat 04:34:27 PM 38.0370 -79.9670 237° Southwest 466 536 36,000  Level FlightAware ADS-B
Sat 04:35:07 PM 37.9970 -80.0450 237° Southwest 466 536 36,000  Level FlightAware ADS-B
Sat 04:35:57 PM 37.9470 -80.1420 237° Southwest 466 536 36,000  Level FlightAware ADS-B
Sat 04:36:37 PM 37.8760 -80.2800 237° Southwest 462 532 36,000  Level FlightAware ADS-B
Sat 04:37:22 PM 37.8240 -80.3800 237° Southwest 462 532 36,000  Level FlightAware ADS-B
Sat 04:38:17 PM 37.7580 -80.5060 237° Southwest 461 531 36,000  Level FlightAware ADS-B
Sat 04:39:12 PM 37.6980 -80.6220 237° Southwest 460 529 36,000  Level FlightAware ADS-B
Sat 04:39:52 PM 37.6570 -80.6980 236° Southwest 460 529 36,000  Level FlightAware ADS-B
Sat 04:40:32 PM 37.6170 -80.7740 236° Southwest 460 529 36,000  Level FlightAware ADS-B
Sat 04:41:12 PM 37.5760 -80.8490 235° Southwest 460 529 36,000  Level FlightAware ADS-B
Sat 04:42:02 PM 37.5260 -80.9440 236° Southwest 460 529 36,000  Level FlightAware ADS-B
Sat 04:42:42 PM 37.4850 -81.0200 236° Southwest 460 529 36,000  Level FlightAware ADS-B
Sat 04:43:22 PM 37.4450 -81.0950 236° Southwest 460 529 36,000  Level FlightAware ADS-B
Sat 04:44:02 PM 37.4040 -81.1710 236° Southwest 460 529 36,000  Level FlightAware ADS-B
Sat 04:44:42 PM 37.3640 -81.2460 236° Southwest 460 529 36,000  Level FlightAware ADS-B
Sat 04:45:32 PM 37.3130 -81.3400 236° Southwest 460 529 36,000  Level FlightAware ADS-B
Sat 04:46:12 PM 37.2730 -81.4160 237° Southwest 460 529 36,000  Level FlightAware ADS-B
Sat 04:46:52 PM 37.2320 -81.4910 236° Southwest 460 529 36,000  Level FlightAware ADS-B
Sat 04:47:32 PM 37.1920 -81.5660 236° Southwest 460 529 36,000  Level FlightAware ADS-B
Sat 04:47:54 PM 37.0737 -81.7978 237° Southwest 459 528 36,000  Level FlightAware ADS-B
Sat 04:48:24 PM 37.0379 -81.8633 236° Southwest 456 525 36,000  Level FlightAware ADS-B
Sat 04:48:57 PM 36.9992 -81.9353 236° Southwest 456 525 36,000  Level FlightAware ADS-B
Sat 04:49:29 PM 36.9615 -82.0052 236° Southwest 456 525 36,000  Level FlightAware ADS-B
Sat 04:49:59 PM 36.9251 -82.0724 236° Southwest 452 520 36,000  Level FlightAware ADS-B
Sat 04:50:32 PM 36.8872 -82.1414 236° Southwest 453 521 36,000  Level FlightAware ADS-B
Sat 04:52:47 PM 36.7291 -82.4301 236° Southwest 445 512 36,000  Level FlightAware ADS-B
Sat 04:53:17 PM 36.6939 -82.4934 235° Southwest 444 511 36,000  Level FlightAware ADS-B
Sat 04:53:48 PM 36.6580 -82.5587 236° Southwest 444 511 36,000  Level FlightAware ADS-B
Sat 04:54:18 PM 36.6224 -82.6221 235° Southwest 445 512 36,000  Level FlightAware ADS-B
Sat 04:54:49 PM 36.5859 -82.6893 236° Southwest 445 512 36,000  Level FlightAware ADS-B
Sat 04:55:23 PM 36.5465 -82.7590 235° Southwest 447 514 36,000  Level FlightAware ADS-B
Sat 04:55:54 PM 36.5103 -82.8244 235° Southwest 446 513 36,000  Level FlightAware ADS-B
Sat 04:56:30 PM 36.4685 -82.9002 236° Southwest 442 509 36,000  Level FlightAware ADS-B
Sat 04:57:00 PM 36.4328 -82.9641 235° Southwest 437 503 36,000  Level FlightAware ADS-B
Sat 04:57:30 PM 36.3982 -83.0257 235° Southwest 435 501 36,000  Level FlightAware ADS-B
Sat 04:58:01 PM 36.3628 -83.0870 234° Southwest 435 501 36,000  Level FlightAware ADS-B
Sat 04:58:32 PM 36.3279 -83.1504 236° Southwest 434 499 36,000  Level FlightAware ADS-B
Sat 04:59:02 PM 36.2927 -83.2115 234° Southwest 434 499 36,000  Level FlightAware ADS-B
Sat 04:59:38 PM 36.2516 -83.2852 235° Southwest 437 503 36,000  Level FlightAware ADS-B
Sat 05:00:09 PM 36.2158 -83.3489 235° Southwest 438 504 36,000  Level FlightAware ADS-B
Sat 05:00:39 PM 36.1801 -83.4126 235° Southwest 437 503 36,000  Level FlightAware ADS-B
Sat 05:01:10 PM 36.1452 -83.4739 235° Southwest 435 501 36,000  Level FlightAware ADS-B
Sat 05:01:40 PM 36.1106 -83.5348 235° Southwest 432 497 36,000  Level FlightAware ADS-B
Sat 05:02:11 PM 36.0749 -83.5970 235° Southwest 428 493 36,000  Level FlightAware ADS-B
Sat 05:02:41 PM 36.0402 -83.6567 234° Southwest 427 491 36,000  Level FlightAware ADS-B
Sat 05:03:12 PM 36.0049 -83.7203 236° Southwest 425 489 36,000  Level FlightAware ADS-B
Sat 05:03:47 PM 35.9661 -83.7877 235° Southwest 425 489 36,000  Level FlightAware ADS-B
Sat 05:04:18 PM 35.9302 -83.8491 234° Southwest 427 491 36,000  Level FlightAware ADS-B
Sat 05:04:47 PM 35.8956 -83.9055 233° Southwest 425 489 36,000  Level FlightAware ADS-B
Sat 05:05:19 PM 35.8543 -83.9660 230° Southwest 426 490 36,000  Level FlightAware ADS-B
Sat 05:05:57 PM 35.8050 -84.0337 228° Southwest 429 494 36,000  Level FlightAware ADS-B
Sat 05:06:28 PM 35.7646 -84.0906 229° Southwest 433 498 36,000  Level FlightAware ADS-B
Sat 05:06:59 PM 35.7235 -84.1484 229° Southwest 437 503 36,000  Level FlightAware ADS-B
Sat 05:07:29 PM 35.6832 -84.2044 228° Southwest 439 505 36,000  Level FlightAware ADS-B
Sat 05:08:00 PM 35.6418 -84.2623 229° Southwest 437 503 36,000  Level FlightAware ADS-B
Sat 05:08:30 PM 35.6013 -84.3180 228° Southwest 437 503 36,000  Level FlightAware ADS-B
Sat 05:09:00 PM 35.5605 -84.3739 228° Southwest 437 503 36,000  Level FlightAware ADS-B
Sat 05:09:30 PM 35.5202 -84.4295 228° Southwest 438 504 36,000  Level FlightAware ADS-B
Sat 05:10:01 PM 35.4788 -84.4873 229° Southwest 439 505 36,000  Level FlightAware ADS-B
Sat 05:10:32 PM 35.4373 -84.5451 229° Southwest 438 504 36,000  Level FlightAware ADS-B
Sat 05:11:03 PM 35.3958 -84.6028 229° Southwest 438 504 36,000  Level FlightAware ADS-B
Sat 05:11:34 PM 35.3539 -84.6600 228° Southwest 437 503 36,000  Level FlightAware ADS-B
Sat 05:12:04 PM 35.3126 -84.7173 229° Southwest 436 502 36,000  Level FlightAware ADS-B
Sat 05:12:35 PM 35.2712 -84.7726 227° Southwest 434 499 36,000  Level FlightAware ADS-B
Sat 05:13:05 PM 35.2311 -84.8274 228° Southwest 432 497 36,000  Level FlightAware ADS-B
Sat 05:13:36 PM 35.1904 -84.8837 229° Southwest 431 496 36,000  Level FlightAware ADS-B
Sat 05:14:16 PM 35.1371 -84.9563 228° Southwest 431 496 36,000  Level FlightAware ADS-B
Sat 05:16:20 PM 34.9721 -85.1800 228° Southwest 428 493 36,000  Level FlightAware ADS-B
Sat 05:18:17 PM 34.8250 -85.3790 228° Southwest 422 486 36,000  Level FlightAware ADS-B
Sat 05:18:57 PM 34.7810 -85.4390 228° Southwest 420 483 36,000  Level FlightAware ADS-B
Sat 05:19:37 PM 34.7370 -85.4990 228° Southwest 420 483 36,000  Level FlightAware ADS-B
Sat 05:20:17 PM 34.6930 -85.5580 228° Southwest 420 483 36,000  Level FlightAware ADS-B
Sat 05:20:57 PM 34.6480 -85.6180 228° Southwest 420 483 36,000  Level FlightAware ADS-B
Sat 05:21:47 PM 34.5930 -85.6930 228° Southwest 420 483 36,000  Level FlightAware ADS-B
Sat 05:22:27 PM 34.5490 -85.7520 228° Southwest 420 483 36,000  Level FlightAware ADS-B
Sat 05:23:07 PM 34.5050 -85.8120 228° Southwest 420 483 36,000  Level FlightAware ADS-B
Sat 05:23:47 PM 34.4600 -85.8710 227° Southwest 420 483 36,000  Level FlightAware ADS-B
Sat 05:24:27 PM 34.4160 -85.9310 228° Southwest 420 483 36,000  Level FlightAware ADS-B
Sat 05:25:17 PM 34.3610 -86.0050 228° Southwest 420 483 36,000  Level FlightAware ADS-B
Sat 05:25:57 PM 34.3170 -86.0650 228° Southwest 420 483 36,000  Level FlightAware ADS-B
Sat 05:26:37 PM 34.2730 -86.1240 228° Southwest 420 483 36,000  Level FlightAware ADS-B
Sat 05:27:17 PM 34.2280 -86.1840 228° Southwest 420 483 36,000  Level FlightAware ADS-B
Sat 05:28:07 PM 34.1730 -86.2580 228° Southwest 420 483 36,000  Level FlightAware ADS-B
Sat 05:28:58 PM 33.9914 -86.4817 228° Southwest 419 482 36,000  Level Atlanta Center
Sat 05:29:58 PM 33.9142 -86.5819 227° Southwest 414 476 36,000  Level Atlanta Center
Sat 05:30:58 PM 33.8369 -86.6822 227° Southwest 414 476 36,000  Level Atlanta Center
Sat 05:31:58 PM 33.7617 -86.7775 226° Southwest 409 471 36,000  Level Atlanta Center
Sat 05:32:58 PM 33.6864 -86.8750 227° Southwest 409 471 36,000  Level Atlanta Center
Sat 05:33:58 PM 33.6172 -86.9797 232° Southwest 409 471 36,000  Level Atlanta Center
Sat 05:34:58 PM 33.5458 -87.0819 230° Southwest 403 464 36,000  Level Atlanta Center
Sat 05:35:58 PM 33.4764 -87.1842 231° Southwest 398 458 36,000  Level Atlanta Center
Sat 05:36:58 PM 33.4089 -87.2914 233° Southwest 398 458 36,000  Level Atlanta Center
Sat 05:39:20 PM 33.2350 -87.5508 231° Southwest 414 476 36,000  Level Memphis Center
Sat 05:40:20 PM 33.1642 -87.6522 230° Southwest 409 471 36,000  Level Memphis Center
Sat 05:41:20 PM 33.0956 -87.7561 232° Southwest 404 465 36,000  Level Memphis Center
Sat 05:42:20 PM 33.0247 -87.8622 231° Southwest 404 465 36,000  Level Memphis Center
Sat 05:44:20 PM 32.8889 -88.0714 232° Southwest 404 465 36,000  Level Memphis Center
Sat 05:45:20 PM 32.8175 -88.1719 230° Southwest 404 465 36,000  Level Memphis Center
Sat 05:46:20 PM 32.7483 -88.2725 231° Southwest 404 465 36,000  Level Memphis Center
Sat 05:47:20 PM 32.6811 -88.3753 232° Southwest 404 465 36,000  Level Memphis Center
Sat 05:48:20 PM 32.6075 -88.4781 230° Southwest 399 459 36,000  Level Memphis Center
Sat 05:49:20 PM 32.5400 -88.5756 231° Southwest 399 459 36,000  Level Memphis Center
Sat 05:50:20 PM 32.4686 -88.6781 230° Southwest 399 459 36,000  Level Memphis Center
Sat 05:51:20 PM 32.3989 -88.7778 230° Southwest 399 459 36,000  Level Memphis Center
Sat 05:52:20 PM 32.3183 -88.8628 222° Southwest 393 452 36,000  Level Memphis Center
Sat 05:53:20 PM 32.2128 -88.9308 209° Southwest 410 472 36,000 522 Level Memphis Center
Sat 05:55:01 PM 32.0550 -89.0508 213° Southwest 426 490 37,400 741 Climbing Houston Center
Sat 05:56:02 PM 31.9561 -89.1281 214° Southwest 429 494 38,000 293 Climbing Houston Center
Sat 05:57:04 PM 31.8569 -89.2044 213° Southwest 426 490 38,000  Level Houston Center
Sat 05:58:06 PM 31.7575 -89.2797 213° Southwest 428 493 38,000  Level Houston Center
Sat 05:59:08 PM 31.6383 -89.3714 213° Southwest 428 493 38,000  Level Houston Center
Sat 06:00:09 PM 31.5381 -89.4469 213° Southwest 430 495 38,000  Level Houston Center
Sat 06:01:11 PM 31.4394 -89.5283 215° Southwest 435 501 38,000  Level Houston Center
Sat 06:02:12 PM 31.3386 -89.6281 220° Southwest 437 503 38,000  Level Houston Center
Sat 06:03:14 PM 31.2478 -89.7192 221° Southwest 433 498 38,000  Level Houston Center
Sat 06:04:16 PM 31.1561 -89.8108 221° Southwest 434 499 38,000  Level Houston Center
Sat 06:05:17 PM 31.0647 -89.9008 220° Southwest 436 502 38,000  Level Houston Center
Sat 06:06:19 PM 30.9725 -89.9908 220° Southwest 435 501 38,000  Level Houston Center
Sat 06:07:21 PM 30.8817 -90.0808 220° Southwest 432 497 38,000  Level Houston Center
Sat 06:08:23 PM 30.7900 -90.1714 220° Southwest 435 501 38,000  Level Houston Center
Sat 06:09:24 PM 30.6803 -90.2789 220° Southwest 432 497 38,000  Level Houston Center
Sat 06:15:36 PM 30.1053 -90.8359 220° Southwest 432 497 38,000  Level FlightAware ADS-B
Sat 06:16:06 PM 30.0590 -90.8804 220° Southwest 432 497 38,000  Level FlightAware ADS-B
Sat 06:17:09 PM 29.9613 -90.9736 220° Southwest 432 497 38,000  Level FlightAware ADS-B
Sat 06:18:50 PM 29.8063 -91.1225 220° Southwest 434 499 38,000  Level FlightAware ADS-B
Sat 06:19:21 PM 29.7586 -91.1681 220° Southwest 434 499 38,000  Level FlightAware ADS-B
Sat 06:19:52 PM 29.7108 -91.2137 220° Southwest 434 499 38,000  Level FlightAware ADS-B
Sat 06:20:31 PM 29.6491 -91.2711 219° Southwest 435 501 38,000  Level FlightAware ADS-B
Sat 06:21:01 PM 29.6022 -91.3168 220° Southwest 435 501 38,000  Level FlightAware ADS-B
Sat 06:21:39 PM 29.5438 -91.3713 219° Southwest 435 501 38,000  Level FlightAware ADS-B
Sat 06:22:23 PM 29.4752 -91.4361 219° Southwest 435 501 38,000  Level FlightAware ADS-B
Sat 06:22:55 PM 29.4257 -91.4832 220° Southwest 436 502 38,000  Level FlightAware ADS-B
Sat 06:23:36 PM 29.3619 -91.5433 219° Southwest 435 501 38,000  Level FlightAware ADS-B
Sat 06:24:07 PM 29.3124 -91.5887 219° Southwest 435 501 38,000  Level FlightAware ADS-B
Sat 06:24:47 PM 29.2504 -91.6472 219° Southwest 436 502 38,000  Level FlightAware ADS-B
Sat 06:25:19 PM 29.2002 -91.6940 219° Southwest 436 502 38,000  Level FlightAware ADS-B
Sat 06:25:56 PM 29.1432 -91.7481 220° Southwest 436 502 38,000  Level FlightAware ADS-B
Sat 06:26:28 PM 29.0932 -91.7947 219° Southwest 434 499 38,000  Level FlightAware ADS-B
Sat 06:27:00 PM 29.0437 -91.8412 219° Southwest 434 499 38,000  Level FlightAware ADS-B
Sat 06:27:30 PM 28.9957 -91.8861 219° Southwest 434 499 38,000  Level FlightAware ADS-B
Sat 06:28:24 PM 28.9122 -91.9628 219° Southwest 433 498 38,000  Level FlightAware ADS-B
Sat 06:28:58 PM 28.8590 -92.0133 220° Southwest 433 498 38,000  Level FlightAware ADS-B
Sat 06:29:35 PM 28.8019 -92.0653 219° Southwest 433 498 38,000  Level FlightAware ADS-B
Sat 06:30:06 PM 28.7541 -92.1100 219° Southwest 433 498 38,000  Level FlightAware ADS-B
Sat 06:30:37 PM 28.7049 -92.1562 219° Southwest 433 498 38,000  Level FlightAware ADS-B
Sat 06:31:08 PM 28.6579 -92.1993 219° Southwest 433 498 38,000  Level FlightAware ADS-B
Sat 06:31:40 PM 28.6069 -92.2455 218° Southwest 434 499 38,000  Level FlightAware ADS-B
Sat 06:32:10 PM 28.5600 -92.2886 219° Southwest 435 501 38,000  Level FlightAware ADS-B
Sat 06:32:41 PM 28.5118 -92.3334 219° Southwest 436 502 38,000  Level FlightAware ADS-B
Sat 06:33:03 PM 28.4961 -92.3483 219° Southwest 430 495 38,000  Level Houston Center
Sat 06:34:04 PM 28.4019 -92.4342 219° Southwest 433 498 38,000  Level Houston Center
Sat 06:39:22 PM 27.8587 -92.8768 219° Southwest 438 504 38,000  Level FlightAware ADS-B
Sat 06:40:41 PM 27.7225 -92.9712 212° Southwest 438 504 38,000  Level FlightAware ADS-B
Sat 06:41:15 PM 27.6822 -92.9981 212° Southwest 437 503 38,000  Level Houston Center
Sat 06:42:17 PM 27.5783 -93.0694 211° Southwest 435 501 38,000  Level Houston Center
Sat 06:43:18 PM 27.4753 -93.1419 212° Southwest 436 502 38,000  Level Houston Center
Sat 06:49:23 PM 26.8255 -93.5839 212° Southwest 436 502 38,000  Level FlightAware ADS-B
Sat 06:50:34 PM 26.7025 -93.6662 211° Southwest 439 505 38,000  Level FlightAware ADS-B
Sat 06:54:14 PM 26.3172 -93.9254 211° Southwest 442 509 38,000  Level FlightAware ADS-B
Sat 06:54:46 PM 26.2619 -93.9631 211° Southwest 441 507 38,000  Level FlightAware ADS-B
Sat 06:57:00 PM 26.0124 -94.1234 210° Southwest  Level FlightAware Approximate
Sat 06:58:00 PM 25.9006 -94.1950 210° Southwest  Level FlightAware Approximate
Sat 06:59:00 PM 25.7897 -94.2682 211° Southwest  Level FlightAware Approximate
Sat 07:00:00 PM 25.6793 -94.3420 211° Southwest  Level FlightAware Approximate
Sat 07:01:00 PM 25.5688 -94.4158 211° Southwest  Level FlightAware Approximate
Sat 07:02:00 PM 25.4582 -94.4894 211° Southwest  Level FlightAware Approximate
Sat 07:03:00 PM 25.3476 -94.5628 211° Southwest  Level FlightAware Approximate
Sat 07:04:00 PM 25.2357 -94.6336 209° Southwest  Level FlightAware Approximate
Sat 07:05:00 PM 25.1232 -94.7033 209° Southwest  Level FlightAware Approximate
Sat 07:06:00 PM 25.0106 -94.7728 209° Southwest  Level FlightAware Approximate
Sat 07:07:00 PM 24.8981 -94.8423 209° Southwest  Level FlightAware Approximate
Sat 07:08:00 PM 24.7855 -94.9116 209° Southwest  Level FlightAware Approximate
Sat 07:09:00 PM 24.6729 -94.9807 209° Southwest  Level FlightAware Approximate
Sat 07:10:00 PM 24.5602 -95.0498 209° Southwest  Level FlightAware Approximate
Sat 07:11:00 PM 24.4475 -95.1187 209° Southwest  Level FlightAware Approximate
Sat 07:12:00 PM 24.3348 -95.1875 209° Southwest  Level FlightAware Approximate
Sat 07:13:00 PM 24.2220 -95.2562 209° Southwest  Level FlightAware Approximate
Sat 07:14:00 PM 24.1097 -95.3256 210° Southwest  Level FlightAware Approximate
Sat 07:15:00 PM 23.9981 -95.3963 210° Southwest  Level FlightAware Approximate
Sat 07:16:00 PM 23.8864 -95.4669 210° Southwest  Level FlightAware Approximate
Sat 07:17:00 PM 23.7747 -95.5374 210° Southwest  Level FlightAware Approximate
Sat 07:18:00 PM 23.6630 -95.6078 210° Southwest  Level FlightAware Approximate
Sat 07:19:00 PM 23.5513 -95.6780 210° Southwest  Level FlightAware Approximate
Sat 07:20:00 PM 23.4395 -95.7482 210° Southwest  Level FlightAware Approximate
Sat 07:21:00 PM 23.3273 -95.8175 209° Southwest  Level FlightAware Approximate
Sat 07:22:00 PM 23.2148 -95.8861 209° Southwest  Level FlightAware Approximate
Sat 07:23:00 PM 23.1022 -95.9546 209° Southwest  Level FlightAware Approximate
Sat 07:24:00 PM 22.9897 -96.0229 209° Southwest  Level FlightAware Approximate
Sat 07:25:00 PM 22.8771 -96.0912 209° Southwest  Level FlightAware Approximate
Sat 07:26:00 PM 22.7644 -96.1594 209° Southwest  Level FlightAware Approximate
Sat 07:27:00 PM 22.6518 -96.2274 209° Southwest  Level FlightAware Approximate
Sat 07:28:00 PM 22.5391 -96.2954 209° Southwest  Level FlightAware Approximate
Sat 07:29:00 PM 22.4264 -96.3632 209° Southwest  Level FlightAware Approximate
Sat 07:30:00 PM 22.3136 -96.4309 209° Southwest  Level FlightAware Approximate
Sat 07:31:00 PM 22.2008 -96.4985 209° Southwest  Level FlightAware Approximate
Sat 07:32:00 PM 22.0881 -96.5660 209° Southwest  Level FlightAware Approximate
Sat 07:33:00 PM 21.9752 -96.6334 209° Southwest  Level FlightAware Approximate
Sat 07:34:00 PM 21.8624 -96.7007 209° Southwest  Level FlightAware Approximate
Sat 07:35:00 PM 21.7495 -96.7679 209° Southwest  Level FlightAware Approximate
Sat 07:36:00 PM 21.6366 -96.8349 209° Southwest  Level FlightAware Approximate
Sat 07:37:00 PM 21.5236 -96.9019 209° Southwest  Level FlightAware Approximate
Sat 07:38:00 PM 21.4107 -96.9688 209° Southwest  Level FlightAware Approximate
Sat 07:39:00 PM 21.2977 -97.0355 209° Southwest  Level FlightAware Approximate
Sat 07:40:00 PM 21.1847 -97.1022 209° Southwest  Level FlightAware Approximate
Sat 07:41:00 PM 21.0716 -97.1687 209° Southwest  Level FlightAware Approximate
Sat 07:42:00 PM 20.9586 -97.2352 209° Southwest  Level FlightAware Approximate
Sat 07:43:00 PM 20.8444 -97.2994 207° Southwest  Level FlightAware Approximate
Sat 07:44:00 PM 20.7323 -97.3673 210° Southwest  Level FlightAware Approximate
Sat 07:45:00 PM 20.6210 -97.4369 210° Southwest  Level FlightAware Approximate
Sat 07:46:00 PM 20.5543 -97.5506 244° Southwest  Level FlightAware Approximate
Sat 07:47:00 PM 20.5023 -97.6764 250° West  Level FlightAware Approximate
Sat 07:48:00 PM 20.4547 -97.8044 248° West  Level FlightAware Approximate
Sat 07:49:00 PM 20.4067 -97.9321 248° West  Level FlightAware Approximate
Sat 07:50:00 PM 20.3610 -98.0607 249° West  Level FlightAware Approximate
Sat 07:51:00 PM 20.3155 -98.1894 249° West  Level FlightAware Approximate
Sat 07:52:00 PM 20.2679 -98.3172 248° West  Level FlightAware Approximate
Sat 07:53:00 PM 20.2190 -98.4444 248° West  Level FlightAware Approximate
Sat 07:54:00 PM 20.1700 -98.5715 248° West  Level FlightAware Approximate
Sat 07:55:00 PM 20.1080 -98.6877 205° Southwest  Level FlightAware Approximate
Sat 07:56:00 PM 19.9913 -98.7460 205° Southwest  Level FlightAware Approximate
Sat 07:57:00 PM 19.8764 -98.8083 207° Southwest  Level FlightAware Approximate
Sat 07:58:00 PM 19.7618 -98.8712 208° Southwest  Level FlightAware Approximate
Sat 07:59:00 PM 19.6476 -98.9348 209° Southwest  Level FlightAware Approximate
Sat 08:00:00 PM 19.5341 -98.9996 205° Southwest  Level FlightAware Approximate
Sat 08:01:00 PM 19.4363 -99.0721 210° Southwest  Level Estimated
Sat 08:02:00 PM 19.4363 -99.0721 210° Southwest  Level Estimated
Sat 08:03:00 PM 19.4363 -99.0721 210° Southwest  Level Estimated
Sat 08:04:00 PM 19.4363 -99.0721 210° Southwest  Level Estimated
Sat 08:05:00 PM 19.4363 -99.0721 210° Southwest  Level Estimated
Sat 08:06:00 PM 19.4363 -99.0721 210° Southwest  Level Estimated
Sat 08:07:00 PM 19.4363 -99.0721 210° Southwest  Level Estimated
Sat 08:08:00 PM 19.4363 -99.0721 210° Southwest  Level Estimated
Sat 08:09:00 PM 19.4363 -99.0721 210° Southwest  Level Estimated
Sat 08:10:00 PM 19.4363 -99.0721 210° Southwest  Level Estimated
Sat 08:11:00 PM 19.4363 -99.0721 210° Southwest  Level Estimated
Sat 08:12:00 PM 19.4363 -99.0721 210° Southwest  Level Estimated
Sat 08:13:00 PM 19.4363 -99.0721 210° Southwest  Level Estimated
Sat 08:14:00 PM 19.4363 -99.0721 210° Southwest  Level Estimated
Sat 08:15:00 PM 19.4363 -99.0721 210° Southwest  Level Estimated
Sat 08:16:00 PM 19.4363 -99.0721 210° Southwest  Level Estimated
Sat 08:17:00 PM 19.4363 -99.0721 210° Southwest  Level Estimated
Sat 08:18:00 PM 19.4363 -99.0721 210° Southwest  Level Estimated
Sat 08:19:00 PM 19.4363 -99.0721 210° Southwest  Level Estimated

Login

Don't have an account? Register now (free) for customized features, flight alerts, and more!